PSRMK BGSF-CYFB
Flight info
| Callsign | PSRMK |
|---|---|
| Flight time | 3h 49m |
| Altitude | 12000 |
| Route | SF DCT GIGOM DCT IKNOG/N0136F060 DCT KENKI DCT DUTUM DCT BILKU DCT CIRCK DCT XUDPA DCT ATHAB |
| Aircraft | C182/L-SDGRY/S |
Departure
| Time | 2026-04-23 12:57 |
|---|---|
| Airport | Kangerlussuaq International Airport (BGSF) |
Arrival
| Time | 2026-04-23 16:47 |
|---|---|
| Airport | Iqaluit Airport (CYFB) |
| Time | Latitude | Longitude | Altitude | Speed | Heading |
|---|---|---|---|---|---|
| 2026-04-23 12:54 | 67.01907 | -50.69147 | 164 ft | 0 kts | 154° |
| 2026-04-23 12:55 | 67.01897 | -50.69146 | 164 ft | 6 kts | 202° |
| 2026-04-23 12:56 | 67.01835 | -50.69270 | 162 ft | 14 kts | 212° |
| 2026-04-23 12:56 | 67.01752 | -50.69267 | 160 ft | 14 kts | 147° |
| 2026-04-23 12:56 | 67.01676 | -50.69144 | 162 ft | 11 kts | 154° |
| 2026-04-23 12:56 | 67.01636 | -50.69223 | 163 ft | 9 kts | 240° |
| 2026-04-23 12:57 | 67.01532 | -50.69718 | 160 ft | 64 kts | 242° |
| 2026-04-23 12:57 | 67.01253 | -50.71029 | 327 ft | 91 kts | 240° |
| 2026-04-23 12:57 | 67.00973 | -50.72517 | 684 ft | 94 kts | 245° |
| 2026-04-23 12:57 | 67.00680 | -50.74063 | 1000 ft | 98 kts | 245° |
| 2026-04-23 12:58 | 67.00377 | -50.75648 | 1341 ft | 100 kts | 245° |
| 2026-04-23 12:58 | 67.00064 | -50.77261 | 1708 ft | 102 kts | 245° |
| 2026-04-23 12:58 | 66.99746 | -50.78884 | 2037 ft | 104 kts | 245° |
| 2026-04-23 12:58 | 66.99412 | -50.80591 | 2327 ft | 110 kts | 246° |
| 2026-04-23 12:59 | 66.99064 | -50.82368 | 2596 ft | 113 kts | 245° |
| 2026-04-23 12:59 | 66.98713 | -50.84164 | 2862 ft | 113 kts | 244° |
| 2026-04-23 12:59 | 66.98356 | -50.85972 | 3132 ft | 115 kts | 244° |
| 2026-04-23 12:59 | 66.97996 | -50.87811 | 3397 ft | 116 kts | 243° |
| 2026-04-23 13:00 | 66.97631 | -50.89672 | 3666 ft | 118 kts | 242° |
| 2026-04-23 13:00 | 66.97262 | -50.91552 | 3941 ft | 119 kts | 242° |
| 2026-04-23 13:00 | 66.96887 | -50.93452 | 4203 ft | 121 kts | 242° |
| 2026-04-23 13:00 | 66.96599 | -50.95459 | 4465 ft | 120 kts | 254° |
| 2026-04-23 13:01 | 66.96380 | -50.97511 | 4731 ft | 119 kts | 252° |
| 2026-04-23 13:01 | 66.96154 | -50.99560 | 4999 ft | 121 kts | 252° |
| 2026-04-23 13:01 | 66.95925 | -51.01640 | 5269 ft | 122 kts | 252° |
| 2026-04-23 13:01 | 66.95697 | -51.03716 | 5527 ft | 122 kts | 252° |
| 2026-04-23 13:02 | 66.95468 | -51.05786 | 5777 ft | 121 kts | 252° |
| 2026-04-23 13:02 | 66.95240 | -51.07850 | 6051 ft | 121 kts | 252° |
| 2026-04-23 13:02 | 66.95015 | -51.09883 | 6307 ft | 120 kts | 252° |
| 2026-04-23 13:02 | 66.94789 | -51.11920 | 6572 ft | 119 kts | 252° |
| 2026-04-23 13:03 | 66.94564 | -51.13944 | 6842 ft | 118 kts | 252° |
| 2026-04-23 13:03 | 66.94340 | -51.15958 | 7093 ft | 118 kts | 252° |
| 2026-04-23 13:03 | 66.94116 | -51.17966 | 7349 ft | 117 kts | 251° |
| 2026-04-23 13:03 | 66.93894 | -51.19962 | 7592 ft | 117 kts | 251° |
| 2026-04-23 13:04 | 66.93672 | -51.21947 | 7846 ft | 116 kts | 251° |
| 2026-04-23 13:04 | 66.93453 | -51.23910 | 8095 ft | 115 kts | 251° |
| 2026-04-23 13:04 | 66.93235 | -51.25858 | 8360 ft | 114 kts | 250° |
| 2026-04-23 13:04 | 66.93018 | -51.27791 | 8613 ft | 113 kts | 250° |
| 2026-04-23 13:05 | 66.92806 | -51.29679 | 8873 ft | 111 kts | 250° |
| 2026-04-23 13:05 | 66.92594 | -51.31566 | 9136 ft | 110 kts | 250° |
| 2026-04-23 13:05 | 66.92384 | -51.33441 | 9404 ft | 110 kts | 249° |
| 2026-04-23 13:05 | 66.92172 | -51.35320 | 9675 ft | 110 kts | 249° |
| 2026-04-23 13:06 | 66.91753 | -51.39037 | 10217 ft | 108 kts | 249° |
| 2026-04-23 13:06 | 66.91546 | -51.40864 | 10480 ft | 107 kts | 249° |
| 2026-04-23 13:06 | 66.91341 | -51.42677 | 10723 ft | 105 kts | 249° |
| 2026-04-23 13:07 | 66.91138 | -51.44470 | 10967 ft | 105 kts | 248° |
| 2026-04-23 13:07 | 66.90935 | -51.46260 | 11213 ft | 105 kts | 248° |
| 2026-04-23 13:07 | 66.90732 | -51.48046 | 11465 ft | 104 kts | 248° |
| 2026-04-23 13:07 | 66.90532 | -51.49813 | 11712 ft | 102 kts | 247° |
| 2026-04-23 13:08 | 66.90337 | -51.51528 | 11959 ft | 99 kts | 247° |
| 2026-04-23 13:08 | 66.90147 | -51.53198 | 12204 ft | 97 kts | 246° |
| 2026-04-23 13:08 | 66.89964 | -51.54794 | 12452 ft | 94 kts | 246° |
| 2026-04-23 13:08 | 66.89785 | -51.56364 | 12705 ft | 91 kts | 246° |
| 2026-04-23 13:09 | 66.89609 | -51.57901 | 12965 ft | 89 kts | 246° |
| 2026-04-23 13:09 | 66.89433 | -51.59432 | 13224 ft | 90 kts | 245° |
| 2026-04-23 13:09 | 66.89259 | -51.60955 | 13486 ft | 89 kts | 245° |
| 2026-04-23 13:09 | 66.89088 | -51.62449 | 13751 ft | 87 kts | 245° |
| 2026-04-23 13:10 | 66.88919 | -51.63922 | 14027 ft | 87 kts | 244° |
| 2026-04-23 13:10 | 66.88750 | -51.65389 | 14291 ft | 85 kts | 244° |
| 2026-04-23 13:10 | 66.88590 | -51.66787 | 14523 ft | 79 kts | 244° |
| 2026-04-23 13:10 | 66.88443 | -51.68074 | 14752 ft | 75 kts | 243° |
| 2026-04-23 13:11 | 66.88298 | -51.69325 | 14976 ft | 72 kts | 243° |
| 2026-04-23 13:11 | 66.88161 | -51.70506 | 15208 ft | 68 kts | 242° |
| 2026-04-23 13:11 | 66.88029 | -51.71648 | 15442 ft | 66 kts | 242° |
| 2026-04-23 13:11 | 66.87904 | -51.72725 | 15673 ft | 63 kts | 241° |
| 2026-04-23 13:12 | 66.87785 | -51.73754 | 15900 ft | 56 kts | 240° |
| 2026-04-23 13:12 | 66.87681 | -51.74652 | 16125 ft | 52 kts | 239° |
| 2026-04-23 13:12 | 66.87559 | -51.75639 | 16138 ft | 73 kts | 242° |
| 2026-04-23 13:12 | 66.87389 | -51.77093 | 16049 ft | 96 kts | 244° |
| 2026-04-23 13:13 | 66.87188 | -51.78855 | 15904 ft | 111 kts | 246° |
| 2026-04-23 13:13 | 66.86962 | -51.80829 | 15750 ft | 120 kts | 246° |
| 2026-04-23 13:13 | 66.86720 | -51.82940 | 15581 ft | 127 kts | 246° |
| 2026-04-23 13:13 | 66.86470 | -51.85107 | 15401 ft | 130 kts | 246° |
| 2026-04-23 13:14 | 66.86212 | -51.87334 | 15219 ft | 131 kts | 247° |
| 2026-04-23 13:14 | 66.85955 | -51.89547 | 15039 ft | 132 kts | 246° |
| 2026-04-23 13:14 | 66.85692 | -51.91806 | 14851 ft | 133 kts | 247° |
| 2026-04-23 13:14 | 66.85425 | -51.94084 | 14658 ft | 133 kts | 247° |
| 2026-04-23 13:15 | 66.85163 | -51.96331 | 14472 ft | 133 kts | 247° |
| 2026-04-23 13:15 | 66.84898 | -51.98596 | 14271 ft | 133 kts | 247° |
| 2026-04-23 13:15 | 66.84633 | -52.00847 | 14059 ft | 134 kts | 247° |
| 2026-04-23 13:15 | 66.84366 | -52.03115 | 13848 ft | 135 kts | 247° |
| 2026-04-23 13:16 | 66.84097 | -52.05409 | 13627 ft | 134 kts | 247° |
| 2026-04-23 13:16 | 66.83831 | -52.07658 | 13414 ft | 134 kts | 247° |
| 2026-04-23 13:16 | 66.83561 | -52.09944 | 13202 ft | 134 kts | 248° |
| 2026-04-23 13:16 | 66.83294 | -52.12196 | 12989 ft | 134 kts | 248° |
| 2026-04-23 13:17 | 66.83116 | -52.13705 | 12857 ft | 134 kts | 248° |
| 2026-04-23 13:17 | 66.82760 | -52.16716 | 12672 ft | 129 kts | 248° |
| 2026-04-23 13:17 | 66.82593 | -52.18130 | 12674 ft | 124 kts | 248° |
| 2026-04-23 13:17 | 66.82346 | -52.20205 | 12666 ft | 121 kts | 247° |
| 2026-04-23 13:18 | 66.82103 | -52.22237 | 12661 ft | 120 kts | 247° |
| 2026-04-23 13:18 | 66.81862 | -52.24266 | 12662 ft | 117 kts | 247° |
| 2026-04-23 13:18 | 66.81632 | -52.26193 | 12662 ft | 115 kts | 247° |
| 2026-04-23 13:18 | 66.81399 | -52.28134 | 12663 ft | 113 kts | 247° |
| 2026-04-23 13:19 | 66.81175 | -52.30013 | 12664 ft | 110 kts | 247° |
| 2026-04-23 13:19 | 66.80954 | -52.31859 | 12666 ft | 108 kts | 247° |
| 2026-04-23 13:19 | 66.80733 | -52.33690 | 12663 ft | 110 kts | 247° |
| 2026-04-23 13:19 | 66.80509 | -52.35555 | 12661 ft | 110 kts | 247° |
| 2026-04-23 13:20 | 66.80289 | -52.37388 | 12663 ft | 109 kts | 247° |
| 2026-04-23 13:20 | 66.80068 | -52.39227 | 12659 ft | 107 kts | 247° |
| 2026-04-23 13:20 | 66.79853 | -52.41013 | 12663 ft | 106 kts | 246° |
| 2026-04-23 13:20 | 66.79633 | -52.42833 | 12671 ft | 110 kts | 247° |
| 2026-04-23 13:21 | 66.79408 | -52.44686 | 12676 ft | 112 kts | 247° |
| 2026-04-23 13:21 | 66.79180 | -52.46579 | 12674 ft | 111 kts | 247° |
| 2026-04-23 13:21 | 66.78955 | -52.48448 | 12672 ft | 109 kts | 247° |
| 2026-04-23 13:21 | 66.78735 | -52.50264 | 12673 ft | 109 kts | 247° |
| 2026-04-23 13:22 | 66.78511 | -52.52100 | 12673 ft | 109 kts | 247° |
| 2026-04-23 13:22 | 66.78287 | -52.53954 | 12674 ft | 110 kts | 246° |
| 2026-04-23 13:22 | 66.78059 | -52.55825 | 12672 ft | 112 kts | 247° |
| 2026-04-23 13:22 | 66.77833 | -52.57688 | 12671 ft | 111 kts | 246° |
| 2026-04-23 13:23 | 66.77606 | -52.59554 | 12671 ft | 109 kts | 246° |
| 2026-04-23 13:23 | 66.77385 | -52.61368 | 12668 ft | 108 kts | 246° |
| 2026-04-23 13:23 | 66.77161 | -52.63198 | 12669 ft | 108 kts | 246° |
| 2026-04-23 13:23 | 66.76935 | -52.65040 | 12668 ft | 109 kts | 246° |
| 2026-04-23 13:24 | 66.76714 | -52.66845 | 12667 ft | 109 kts | 247° |
| 2026-04-23 13:24 | 66.76488 | -52.68690 | 12668 ft | 109 kts | 246° |
| 2026-04-23 13:24 | 66.76263 | -52.70529 | 12673 ft | 111 kts | 246° |
| 2026-04-23 13:24 | 66.76029 | -52.72431 | 12673 ft | 113 kts | 247° |
| 2026-04-23 13:25 | 66.75795 | -52.74333 | 12672 ft | 114 kts | 247° |
| 2026-04-23 13:25 | 66.75560 | -52.76246 | 12671 ft | 112 kts | 247° |
| 2026-04-23 13:25 | 66.75332 | -52.78105 | 12672 ft | 111 kts | 246° |
| 2026-04-23 13:25 | 66.75099 | -52.79985 | 12672 ft | 110 kts | 247° |
| 2026-04-23 13:26 | 66.74873 | -52.81814 | 12669 ft | 110 kts | 246° |
| 2026-04-23 13:26 | 66.74645 | -52.83661 | 12666 ft | 110 kts | 246° |
| 2026-04-23 13:26 | 66.74416 | -52.85514 | 12666 ft | 110 kts | 246° |
| 2026-04-23 13:26 | 66.74190 | -52.87336 | 12667 ft | 109 kts | 246° |
| 2026-04-23 13:27 | 66.73962 | -52.89174 | 12663 ft | 109 kts | 247° |
| 2026-04-23 13:27 | 66.73735 | -52.91002 | 12661 ft | 108 kts | 246° |
| 2026-04-23 13:27 | 66.73512 | -52.92796 | 12659 ft | 107 kts | 246° |
| 2026-04-23 13:27 | 66.73287 | -52.94602 | 12659 ft | 110 kts | 246° |
| 2026-04-23 13:28 | 66.73055 | -52.96460 | 12664 ft | 111 kts | 246° |
| 2026-04-23 13:28 | 66.72822 | -52.98326 | 12663 ft | 111 kts | 246° |
| 2026-04-23 13:28 | 66.72591 | -53.00172 | 12667 ft | 111 kts | 246° |
| 2026-04-23 13:28 | 66.72356 | -53.02052 | 12671 ft | 112 kts | 247° |
| 2026-04-23 13:29 | 66.72120 | -53.03938 | 12668 ft | 115 kts | 247° |
| 2026-04-23 13:29 | 66.71877 | -53.05878 | 12665 ft | 116 kts | 247° |
| 2026-04-23 13:29 | 66.71634 | -53.07819 | 12671 ft | 116 kts | 247° |
| 2026-04-23 13:29 | 66.71388 | -53.09779 | 12667 ft | 116 kts | 247° |
| 2026-04-23 13:30 | 66.71145 | -53.11714 | 12662 ft | 115 kts | 246° |
| 2026-04-23 13:30 | 66.70903 | -53.13635 | 12659 ft | 114 kts | 246° |
| 2026-04-23 13:30 | 66.70664 | -53.15531 | 12655 ft | 112 kts | 246° |
| 2026-04-23 13:30 | 66.70429 | -53.17395 | 12654 ft | 112 kts | 246° |
| 2026-04-23 13:31 | 66.70192 | -53.19269 | 12651 ft | 111 kts | 246° |
| 2026-04-23 13:31 | 66.69955 | -53.21137 | 12650 ft | 111 kts | 246° |
| 2026-04-23 13:31 | 66.69724 | -53.22962 | 12654 ft | 109 kts | 246° |
| 2026-04-23 13:31 | 66.69491 | -53.24796 | 12652 ft | 109 kts | 246° |
| 2026-04-23 13:32 | 66.69261 | -53.26610 | 12649 ft | 109 kts | 246° |
| 2026-04-23 13:32 | 66.69031 | -53.28420 | 12652 ft | 109 kts | 246° |
| 2026-04-23 13:32 | 66.68794 | -53.30281 | 12655 ft | 111 kts | 246° |
| 2026-04-23 13:32 | 66.68558 | -53.32131 | 12655 ft | 111 kts | 246° |
| 2026-04-23 13:33 | 66.68323 | -53.33978 | 12654 ft | 111 kts | 246° |
| 2026-04-23 13:33 | 66.68085 | -53.35845 | 12654 ft | 111 kts | 246° |
| 2026-04-23 13:33 | 66.67849 | -53.37689 | 12657 ft | 111 kts | 246° |
| 2026-04-23 13:33 | 66.67611 | -53.39553 | 12655 ft | 111 kts | 246° |
| 2026-04-23 13:34 | 66.67374 | -53.41403 | 12654 ft | 111 kts | 246° |
| 2026-04-23 13:34 | 66.67136 | -53.43264 | 12654 ft | 111 kts | 246° |
| 2026-04-23 13:34 | 66.66899 | -53.45107 | 12655 ft | 111 kts | 246° |
| 2026-04-23 13:34 | 66.66660 | -53.46970 | 12656 ft | 111 kts | 246° |
| 2026-04-23 13:35 | 66.66423 | -53.48808 | 12658 ft | 111 kts | 246° |
| 2026-04-23 13:35 | 66.66183 | -53.50671 | 12659 ft | 111 kts | 246° |
| 2026-04-23 13:35 | 66.65947 | -53.52507 | 12660 ft | 111 kts | 246° |
| 2026-04-23 13:35 | 66.65706 | -53.54374 | 12661 ft | 111 kts | 246° |
| 2026-04-23 13:36 | 66.65466 | -53.56233 | 12661 ft | 111 kts | 246° |
| 2026-04-23 13:36 | 66.65228 | -53.58070 | 12661 ft | 111 kts | 246° |
| 2026-04-23 13:36 | 66.64988 | -53.59927 | 12660 ft | 111 kts | 246° |
| 2026-04-23 13:36 | 66.64749 | -53.61769 | 12659 ft | 111 kts | 246° |
| 2026-04-23 13:37 | 66.64507 | -53.63630 | 12659 ft | 111 kts | 246° |
| 2026-04-23 13:37 | 66.64266 | -53.65489 | 12660 ft | 111 kts | 246° |
| 2026-04-23 13:37 | 66.64026 | -53.67337 | 12661 ft | 111 kts | 246° |
| 2026-04-23 13:37 | 66.63783 | -53.69203 | 12661 ft | 111 kts | 246° |
| 2026-04-23 13:38 | 66.63542 | -53.71049 | 12661 ft | 111 kts | 246° |
| 2026-04-23 13:38 | 66.63303 | -53.72883 | 12662 ft | 111 kts | 246° |
| 2026-04-23 13:38 | 66.63060 | -53.74743 | 12662 ft | 111 kts | 246° |
| 2026-04-23 13:38 | 66.62818 | -53.76588 | 12666 ft | 111 kts | 246° |
| 2026-04-23 13:39 | 66.62575 | -53.78452 | 12665 ft | 112 kts | 246° |
| 2026-04-23 13:39 | 66.62331 | -53.80308 | 12665 ft | 112 kts | 246° |
| 2026-04-23 13:39 | 66.62087 | -53.82172 | 12666 ft | 112 kts | 246° |
| 2026-04-23 13:39 | 66.61844 | -53.84019 | 12665 ft | 112 kts | 246° |
| 2026-04-23 13:40 | 66.61601 | -53.85866 | 12669 ft | 112 kts | 246° |
| 2026-04-23 13:40 | 66.61356 | -53.87732 | 12665 ft | 112 kts | 246° |
| 2026-04-23 13:40 | 66.61109 | -53.89601 | 12671 ft | 112 kts | 246° |
| 2026-04-23 13:40 | 66.60866 | -53.91445 | 12673 ft | 112 kts | 246° |
| 2026-04-23 13:41 | 66.60622 | -53.93293 | 12671 ft | 112 kts | 246° |
| 2026-04-23 13:41 | 66.60375 | -53.95164 | 12672 ft | 112 kts | 246° |
| 2026-04-23 13:41 | 66.60130 | -53.97011 | 12670 ft | 112 kts | 246° |
| 2026-04-23 13:41 | 66.59886 | -53.98857 | 12671 ft | 112 kts | 246° |
| 2026-04-23 13:42 | 66.59638 | -54.00725 | 12672 ft | 112 kts | 246° |
| 2026-04-23 13:42 | 66.59393 | -54.02572 | 12673 ft | 112 kts | 246° |
| 2026-04-23 13:42 | 66.59144 | -54.04444 | 12675 ft | 112 kts | 246° |
| 2026-04-23 13:42 | 66.58899 | -54.06288 | 12680 ft | 112 kts | 246° |
| 2026-04-23 13:43 | 66.58650 | -54.08150 | 12675 ft | 112 kts | 246° |
| 2026-04-23 13:43 | 66.58401 | -54.10018 | 12677 ft | 112 kts | 246° |
| 2026-04-23 13:43 | 66.58152 | -54.11885 | 12676 ft | 112 kts | 246° |
| 2026-04-23 13:43 | 66.57906 | -54.13727 | 12677 ft | 112 kts | 246° |
| 2026-04-23 13:44 | 66.57656 | -54.15595 | 12675 ft | 112 kts | 245° |
| 2026-04-23 13:44 | 66.57406 | -54.17465 | 12678 ft | 112 kts | 245° |
| 2026-04-23 13:44 | 66.57158 | -54.19314 | 12679 ft | 112 kts | 245° |
| 2026-04-23 13:44 | 66.56910 | -54.21158 | 12678 ft | 112 kts | 246° |
| 2026-04-23 13:45 | 66.56658 | -54.23036 | 12680 ft | 113 kts | 246° |
| 2026-04-23 13:45 | 66.56409 | -54.24887 | 12683 ft | 113 kts | 245° |
| 2026-04-23 13:45 | 66.56157 | -54.26754 | 12683 ft | 113 kts | 245° |
| 2026-04-23 13:45 | 66.55905 | -54.28626 | 12680 ft | 113 kts | 245° |
| 2026-04-23 13:46 | 66.55656 | -54.30469 | 12683 ft | 113 kts | 245° |
| 2026-04-23 13:46 | 66.55403 | -54.32341 | 12682 ft | 113 kts | 245° |
| 2026-04-23 13:46 | 66.55150 | -54.34213 | 12682 ft | 113 kts | 245° |
| 2026-04-23 13:46 | 66.54899 | -54.36070 | 12683 ft | 113 kts | 245° |
| 2026-04-23 13:47 | 66.54645 | -54.37945 | 12682 ft | 113 kts | 245° |
| 2026-04-23 13:47 | 66.54394 | -54.39795 | 12683 ft | 113 kts | 245° |
| 2026-04-23 13:47 | 66.54142 | -54.41645 | 12686 ft | 113 kts | 245° |
| 2026-04-23 13:47 | 66.53888 | -54.43514 | 12685 ft | 113 kts | 245° |
| 2026-04-23 13:48 | 66.53634 | -54.45386 | 12685 ft | 113 kts | 245° |
| 2026-04-23 13:48 | 66.53381 | -54.47240 | 12681 ft | 113 kts | 245° |
| 2026-04-23 13:48 | 66.53129 | -54.49086 | 12681 ft | 113 kts | 245° |
| 2026-04-23 13:48 | 66.52873 | -54.50959 | 12685 ft | 112 kts | 245° |
| 2026-04-23 13:49 | 66.52621 | -54.52804 | 12689 ft | 112 kts | 245° |
| 2026-04-23 13:49 | 66.52369 | -54.54650 | 12685 ft | 112 kts | 245° |
| 2026-04-23 13:49 | 66.52114 | -54.56511 | 12685 ft | 112 kts | 245° |
| 2026-04-23 13:49 | 66.51862 | -54.58344 | 12684 ft | 112 kts | 245° |
| 2026-04-23 13:50 | 66.51608 | -54.60199 | 12685 ft | 112 kts | 245° |
| 2026-04-23 13:50 | 66.51356 | -54.62033 | 12689 ft | 112 kts | 245° |
| 2026-04-23 13:50 | 66.51101 | -54.63882 | 12687 ft | 112 kts | 245° |
| 2026-04-23 13:50 | 66.50848 | -54.65717 | 12688 ft | 112 kts | 245° |
| 2026-04-23 13:51 | 66.50592 | -54.67577 | 12685 ft | 112 kts | 245° |
| 2026-04-23 13:51 | 66.50339 | -54.69408 | 12684 ft | 112 kts | 245° |
| 2026-04-23 13:51 | 66.50084 | -54.71254 | 12684 ft | 112 kts | 245° |
| 2026-04-23 13:51 | 66.49829 | -54.73098 | 12691 ft | 112 kts | 245° |
| 2026-04-23 13:52 | 66.49576 | -54.74925 | 12690 ft | 112 kts | 245° |
| 2026-04-23 13:52 | 66.49321 | -54.76769 | 12691 ft | 112 kts | 245° |
| 2026-04-23 13:52 | 66.49059 | -54.78650 | 12687 ft | 119 kts | 245° |
| 2026-04-23 13:52 | 66.48782 | -54.80638 | 12688 ft | 125 kts | 245° |
| 2026-04-23 13:53 | 66.48491 | -54.82731 | 12695 ft | 129 kts | 246° |
| 2026-04-23 13:53 | 66.48194 | -54.84870 | 12695 ft | 130 kts | 245° |
| 2026-04-23 13:53 | 66.47894 | -54.87029 | 12696 ft | 131 kts | 246° |
| 2026-04-23 13:53 | 66.47596 | -54.89165 | 12692 ft | 131 kts | 245° |
| 2026-04-23 13:54 | 66.47293 | -54.91336 | 12694 ft | 131 kts | 245° |
| 2026-04-23 13:54 | 66.46994 | -54.93470 | 12696 ft | 131 kts | 245° |
| 2026-04-23 13:54 | 66.46689 | -54.95646 | 12695 ft | 132 kts | 245° |
| 2026-04-23 13:54 | 66.46388 | -54.97796 | 12695 ft | 132 kts | 245° |
| 2026-04-23 13:55 | 66.46081 | -54.99979 | 12693 ft | 132 kts | 245° |
| 2026-04-23 13:55 | 66.45780 | -55.02126 | 12693 ft | 132 kts | 245° |
| 2026-04-23 13:55 | 66.45474 | -55.04299 | 12693 ft | 132 kts | 246° |
| 2026-04-23 13:55 | 66.45170 | -55.06450 | 12692 ft | 132 kts | 245° |
| 2026-04-23 13:56 | 66.44864 | -55.08618 | 12697 ft | 132 kts | 245° |
| 2026-04-23 13:56 | 66.44560 | -55.10775 | 12694 ft | 132 kts | 245° |
| 2026-04-23 13:56 | 66.44254 | -55.12936 | 12695 ft | 132 kts | 245° |
| 2026-04-23 13:56 | 66.43945 | -55.15117 | 12693 ft | 132 kts | 245° |
| 2026-04-23 13:57 | 66.43642 | -55.17256 | 12695 ft | 132 kts | 246° |
| 2026-04-23 13:57 | 66.43332 | -55.19437 | 12697 ft | 132 kts | 245° |
| 2026-04-23 13:57 | 66.43028 | -55.21578 | 12698 ft | 132 kts | 245° |
| 2026-04-23 13:57 | 66.42718 | -55.23757 | 12698 ft | 132 kts | 245° |
| 2026-04-23 13:58 | 66.42411 | -55.25909 | 12697 ft | 132 kts | 245° |
| 2026-04-23 13:58 | 66.42100 | -55.28087 | 12700 ft | 132 kts | 245° |
| 2026-04-23 13:58 | 66.41790 | -55.30261 | 12700 ft | 132 kts | 245° |
| 2026-04-23 13:58 | 66.41482 | -55.32416 | 12702 ft | 132 kts | 245° |
| 2026-04-23 13:59 | 66.41174 | -55.34563 | 12702 ft | 132 kts | 245° |
| 2026-04-23 13:59 | 66.40861 | -55.36746 | 12698 ft | 132 kts | 245° |
| 2026-04-23 13:59 | 66.40554 | -55.38884 | 12699 ft | 132 kts | 245° |
| 2026-04-23 13:59 | 66.40243 | -55.41054 | 12699 ft | 132 kts | 245° |
| 2026-04-23 14:00 | 66.40035 | -55.42497 | 12699 ft | 132 kts | 245° |
| 2026-04-23 14:00 | 66.39617 | -55.45393 | 12698 ft | 132 kts | 245° |
| 2026-04-23 14:00 | 66.39307 | -55.47543 | 12703 ft | 132 kts | 245° |
| 2026-04-23 14:00 | 66.38998 | -55.49688 | 12704 ft | 132 kts | 245° |
| 2026-04-23 14:01 | 66.38684 | -55.51857 | 12701 ft | 132 kts | 245° |
| 2026-04-23 14:01 | 66.38370 | -55.54029 | 12703 ft | 132 kts | 245° |
| 2026-04-23 14:01 | 66.38060 | -55.56167 | 12705 ft | 133 kts | 245° |
| 2026-04-23 14:01 | 66.37744 | -55.58346 | 12703 ft | 133 kts | 245° |
| 2026-04-23 14:02 | 66.37432 | -55.60492 | 12704 ft | 133 kts | 245° |
| 2026-04-23 14:02 | 66.37115 | -55.62669 | 12699 ft | 133 kts | 245° |
| 2026-04-23 14:02 | 66.36801 | -55.64825 | 12700 ft | 133 kts | 245° |
| 2026-04-23 14:02 | 66.36484 | -55.66999 | 12704 ft | 133 kts | 244° |
| 2026-04-23 14:03 | 66.36168 | -55.69165 | 12705 ft | 133 kts | 245° |
| 2026-04-23 14:03 | 66.35854 | -55.71316 | 12705 ft | 133 kts | 244° |
| 2026-04-23 14:03 | 66.35538 | -55.73470 | 12705 ft | 133 kts | 245° |
| 2026-04-23 14:03 | 66.35220 | -55.75644 | 12707 ft | 133 kts | 244° |
| 2026-04-23 14:04 | 66.34907 | -55.77783 | 12707 ft | 133 kts | 244° |
| 2026-04-23 14:04 | 66.34587 | -55.79957 | 12702 ft | 133 kts | 244° |
| 2026-04-23 14:04 | 66.34271 | -55.82102 | 12703 ft | 133 kts | 245° |
| 2026-04-23 14:04 | 66.33952 | -55.84271 | 12702 ft | 133 kts | 245° |
| 2026-04-23 14:05 | 66.33636 | -55.86416 | 12707 ft | 133 kts | 245° |
| 2026-04-23 14:05 | 66.33316 | -55.88585 | 12711 ft | 133 kts | 245° |
| 2026-04-23 14:05 | 66.33104 | -55.90020 | 12708 ft | 133 kts | 244° |
| 2026-04-23 14:05 | 66.32783 | -55.92187 | 12714 ft | 133 kts | 244° |
| 2026-04-23 14:06 | 66.32359 | -55.95056 | 12709 ft | 133 kts | 244° |
| 2026-04-23 14:06 | 66.32145 | -55.96496 | 12708 ft | 133 kts | 244° |
| 2026-04-23 14:06 | 66.31716 | -55.99383 | 12708 ft | 134 kts | 244° |
| 2026-04-23 14:06 | 66.31503 | -56.00820 | 12711 ft | 133 kts | 244° |
| 2026-04-23 14:07 | 66.31181 | -56.02989 | 12713 ft | 134 kts | 244° |
| 2026-04-23 14:07 | 66.30535 | -56.07319 | 12711 ft | 134 kts | 245° |
| 2026-04-23 14:07 | 66.30105 | -56.10200 | 12718 ft | 134 kts | 244° |
| 2026-04-23 14:08 | 66.29890 | -56.11643 | 12720 ft | 134 kts | 244° |
| 2026-04-23 14:08 | 66.29563 | -56.13823 | 12718 ft | 134 kts | 244° |
| 2026-04-23 14:08 | 66.29237 | -56.16001 | 12716 ft | 134 kts | 244° |
| 2026-04-23 14:08 | 66.28914 | -56.18154 | 12714 ft | 134 kts | 244° |
| 2026-04-23 14:09 | 66.28587 | -56.20330 | 12719 ft | 134 kts | 244° |
| 2026-04-23 14:09 | 66.28265 | -56.22474 | 12720 ft | 134 kts | 244° |
| 2026-04-23 14:09 | 66.27938 | -56.24648 | 12719 ft | 134 kts | 244° |
| 2026-04-23 14:09 | 66.27613 | -56.26802 | 12716 ft | 134 kts | 244° |
| 2026-04-23 14:10 | 66.27287 | -56.28967 | 12718 ft | 132 kts | 244° |
| 2026-04-23 14:10 | 66.26970 | -56.31067 | 12716 ft | 130 kts | 244° |
| 2026-04-23 14:10 | 66.26651 | -56.33175 | 12715 ft | 129 kts | 244° |
| 2026-04-23 14:10 | 66.26339 | -56.35236 | 12715 ft | 128 kts | 243° |
| 2026-04-23 14:11 | 66.26026 | -56.37299 | 12713 ft | 128 kts | 244° |
| 2026-04-23 14:11 | 66.25711 | -56.39375 | 12708 ft | 128 kts | 244° |
| 2026-04-23 14:11 | 66.25400 | -56.41421 | 12711 ft | 127 kts | 244° |
| 2026-04-23 14:11 | 66.25086 | -56.43490 | 12713 ft | 127 kts | 243° |
| 2026-04-23 14:12 | 66.24776 | -56.45526 | 12711 ft | 128 kts | 244° |
| 2026-04-23 14:12 | 66.24463 | -56.47577 | 12714 ft | 128 kts | 244° |
| 2026-04-23 14:12 | 66.24145 | -56.49660 | 12717 ft | 128 kts | 244° |
| 2026-04-23 14:12 | 66.23831 | -56.51714 | 12718 ft | 128 kts | 244° |
| 2026-04-23 14:13 | 66.23518 | -56.53765 | 12718 ft | 128 kts | 243° |
| 2026-04-23 14:13 | 66.23200 | -56.55840 | 12717 ft | 128 kts | 244° |
| 2026-04-23 14:13 | 66.22886 | -56.57891 | 12720 ft | 128 kts | 243° |
| 2026-04-23 14:13 | 66.22570 | -56.59947 | 12716 ft | 128 kts | 244° |
| 2026-04-23 14:14 | 66.22251 | -56.62022 | 12719 ft | 128 kts | 244° |
| 2026-04-23 14:14 | 66.21935 | -56.64085 | 12717 ft | 128 kts | 244° |
| 2026-04-23 14:14 | 66.21620 | -56.66125 | 12719 ft | 128 kts | 244° |
| 2026-04-23 14:14 | 66.21301 | -56.68197 | 12722 ft | 128 kts | 243° |
| 2026-04-23 14:15 | 66.20982 | -56.70265 | 12723 ft | 129 kts | 244° |
| 2026-04-23 14:15 | 66.20661 | -56.72338 | 12726 ft | 129 kts | 243° |
| 2026-04-23 14:15 | 66.20345 | -56.74385 | 12726 ft | 129 kts | 244° |
| 2026-04-23 14:15 | 66.20024 | -56.76456 | 12722 ft | 128 kts | 244° |
| 2026-04-23 14:16 | 66.19703 | -56.78530 | 12725 ft | 128 kts | 244° |
| 2026-04-23 14:16 | 66.19385 | -56.80580 | 12728 ft | 129 kts | 243° |
| 2026-04-23 14:16 | 66.19061 | -56.82660 | 12723 ft | 129 kts | 243° |
| 2026-04-23 14:16 | 66.18742 | -56.84717 | 12722 ft | 129 kts | 244° |
| 2026-04-23 14:17 | 66.18418 | -56.86794 | 12727 ft | 129 kts | 243° |
| 2026-04-23 14:17 | 66.18092 | -56.88887 | 12729 ft | 129 kts | 243° |
| 2026-04-23 14:17 | 66.17771 | -56.90943 | 12733 ft | 129 kts | 244° |
| 2026-04-23 14:17 | 66.17445 | -56.93030 | 12730 ft | 130 kts | 243° |
| 2026-04-23 14:18 | 66.17124 | -56.95086 | 12734 ft | 129 kts | 244° |
| 2026-04-23 14:18 | 66.16797 | -56.97176 | 12731 ft | 129 kts | 243° |
| 2026-04-23 14:18 | 66.16472 | -56.99243 | 12737 ft | 129 kts | 243° |
| 2026-04-23 14:18 | 66.16145 | -57.01328 | 12739 ft | 129 kts | 243° |
| 2026-04-23 14:19 | 66.15822 | -57.03389 | 12731 ft | 129 kts | 244° |
| 2026-04-23 14:19 | 66.15494 | -57.05474 | 12742 ft | 129 kts | 243° |
| 2026-04-23 14:19 | 66.15170 | -57.07531 | 12739 ft | 130 kts | 244° |
| 2026-04-23 14:19 | 66.14841 | -57.09621 | 12737 ft | 130 kts | 244° |
| 2026-04-23 14:20 | 66.14515 | -57.11686 | 12743 ft | 130 kts | 243° |
| 2026-04-23 14:20 | 66.14184 | -57.13779 | 12743 ft | 130 kts | 243° |
| 2026-04-23 14:20 | 66.13856 | -57.15855 | 12740 ft | 130 kts | 243° |
| 2026-04-23 14:20 | 66.13527 | -57.17930 | 12740 ft | 130 kts | 243° |
| 2026-04-23 14:21 | 66.13195 | -57.20027 | 12740 ft | 130 kts | 243° |
| 2026-04-23 14:21 | 66.12868 | -57.22088 | 12739 ft | 130 kts | 243° |
| 2026-04-23 14:21 | 66.12538 | -57.24169 | 12743 ft | 130 kts | 243° |
| 2026-04-23 14:21 | 66.12208 | -57.26242 | 12743 ft | 130 kts | 243° |
| 2026-04-23 14:22 | 66.11874 | -57.28345 | 12745 ft | 131 kts | 243° |
| 2026-04-23 14:22 | 66.11544 | -57.30414 | 12749 ft | 130 kts | 243° |
| 2026-04-23 14:22 | 66.11210 | -57.32506 | 12749 ft | 130 kts | 243° |
| 2026-04-23 14:22 | 66.10882 | -57.34563 | 12750 ft | 130 kts | 243° |
| 2026-04-23 14:23 | 66.10549 | -57.36644 | 12747 ft | 130 kts | 243° |
| 2026-04-23 14:23 | 66.10215 | -57.38734 | 12750 ft | 130 kts | 243° |
| 2026-04-23 14:23 | 66.09880 | -57.40823 | 12752 ft | 131 kts | 243° |
| 2026-04-23 14:23 | 66.09549 | -57.42885 | 12752 ft | 131 kts | 243° |
| 2026-04-23 14:24 | 66.09211 | -57.44989 | 12750 ft | 131 kts | 243° |
| 2026-04-23 14:24 | 66.08878 | -57.47055 | 12750 ft | 131 kts | 243° |
| 2026-04-23 14:24 | 66.08543 | -57.49143 | 12752 ft | 131 kts | 243° |
| 2026-04-23 14:24 | 66.08204 | -57.51246 | 12756 ft | 131 kts | 243° |
| 2026-04-23 14:25 | 66.07871 | -57.53309 | 12756 ft | 131 kts | 243° |
| 2026-04-23 14:25 | 66.07533 | -57.55404 | 12755 ft | 131 kts | 243° |
| 2026-04-23 14:25 | 66.07195 | -57.57497 | 12756 ft | 131 kts | 243° |
| 2026-04-23 14:25 | 66.06861 | -57.59559 | 12757 ft | 131 kts | 242° |
| 2026-04-23 14:26 | 66.06522 | -57.61654 | 12753 ft | 131 kts | 243° |
| 2026-04-23 14:26 | 66.06181 | -57.63754 | 12757 ft | 131 kts | 243° |
| 2026-04-23 14:26 | 66.05845 | -57.65822 | 12758 ft | 131 kts | 243° |
| 2026-04-23 14:26 | 66.05503 | -57.67929 | 12760 ft | 131 kts | 243° |
| 2026-04-23 14:27 | 66.05167 | -57.69997 | 12756 ft | 131 kts | 243° |
| 2026-04-23 14:27 | 66.04825 | -57.72091 | 12757 ft | 131 kts | 243° |
| 2026-04-23 14:27 | 66.04483 | -57.74187 | 12758 ft | 132 kts | 243° |
| 2026-04-23 14:27 | 66.04144 | -57.76267 | 12752 ft | 131 kts | 243° |
| 2026-04-23 14:28 | 66.03804 | -57.78345 | 12762 ft | 131 kts | 243° |
| 2026-04-23 14:28 | 66.03465 | -57.80423 | 12756 ft | 131 kts | 242° |
| 2026-04-23 14:28 | 66.03121 | -57.82517 | 12758 ft | 131 kts | 243° |
| 2026-04-23 14:28 | 66.02783 | -57.84583 | 12762 ft | 131 kts | 242° |
| 2026-04-23 14:29 | 66.02438 | -57.86683 | 12760 ft | 132 kts | 243° |
| 2026-04-23 14:29 | 66.02097 | -57.88758 | 12757 ft | 131 kts | 243° |
| 2026-04-23 14:29 | 66.01752 | -57.90853 | 12757 ft | 131 kts | 243° |
| 2026-04-23 14:29 | 66.01411 | -57.92924 | 12761 ft | 131 kts | 243° |
| 2026-04-23 14:30 | 66.01066 | -57.95012 | 12764 ft | 131 kts | 242° |
| 2026-04-23 14:30 | 66.00726 | -57.97081 | 12761 ft | 132 kts | 242° |
| 2026-04-23 14:30 | 66.00380 | -57.99176 | 12764 ft | 131 kts | 243° |
| 2026-04-23 14:30 | 66.00037 | -58.01244 | 12762 ft | 131 kts | 243° |
| 2026-04-23 14:31 | 65.99697 | -58.03300 | 12765 ft | 131 kts | 242° |
| 2026-04-23 14:31 | 65.99351 | -58.05390 | 12764 ft | 131 kts | 242° |
| 2026-04-23 14:31 | 65.99009 | -58.07444 | 12765 ft | 131 kts | 242° |
| 2026-04-23 14:31 | 65.98662 | -58.09534 | 12766 ft | 132 kts | 242° |
| 2026-04-23 14:32 | 65.98319 | -58.11600 | 12768 ft | 131 kts | 243° |
| 2026-04-23 14:32 | 65.97971 | -58.13688 | 12765 ft | 131 kts | 243° |
| 2026-04-23 14:32 | 65.97628 | -58.15746 | 12763 ft | 131 kts | 242° |
| 2026-04-23 14:32 | 65.97281 | -58.17832 | 12766 ft | 131 kts | 243° |
| 2026-04-23 14:33 | 65.96937 | -58.19891 | 12768 ft | 131 kts | 242° |
| 2026-04-23 14:33 | 65.96589 | -58.21970 | 12767 ft | 132 kts | 242° |
| 2026-04-23 14:33 | 65.96241 | -58.24050 | 12768 ft | 131 kts | 241° |
| 2026-04-23 14:33 | 65.95896 | -58.26109 | 12768 ft | 132 kts | 242° |
| 2026-04-23 14:34 | 65.95545 | -58.28197 | 12767 ft | 131 kts | 242° |
| 2026-04-23 14:34 | 65.95200 | -58.30258 | 12768 ft | 131 kts | 242° |
| 2026-04-23 14:34 | 65.94853 | -58.32320 | 12768 ft | 131 kts | 242° |
| 2026-04-23 14:34 | 65.94502 | -58.34405 | 12767 ft | 132 kts | 242° |
| 2026-04-23 14:35 | 65.94155 | -58.36461 | 12766 ft | 132 kts | 242° |
| 2026-04-23 14:35 | 65.93804 | -58.38549 | 12770 ft | 131 kts | 242° |
| 2026-04-23 14:35 | 65.93457 | -58.40600 | 12772 ft | 131 kts | 241° |
| 2026-04-23 14:35 | 65.93105 | -58.42683 | 12770 ft | 131 kts | 242° |
| 2026-04-23 14:36 | 65.92758 | -58.44733 | 12771 ft | 131 kts | 241° |
| 2026-04-23 14:36 | 65.92407 | -58.46805 | 12771 ft | 131 kts | 242° |
| 2026-04-23 14:36 | 65.92059 | -58.48861 | 12768 ft | 132 kts | 242° |
| 2026-04-23 14:36 | 65.91704 | -58.50950 | 12771 ft | 132 kts | 242° |
| 2026-04-23 14:37 | 65.91355 | -58.53005 | 12773 ft | 132 kts | 241° |
| 2026-04-23 14:37 | 65.91002 | -58.55081 | 12774 ft | 132 kts | 241° |
| 2026-04-23 14:37 | 65.90652 | -58.57134 | 12773 ft | 132 kts | 242° |
| 2026-04-23 14:37 | 65.90286 | -58.59206 | 12772 ft | 131 kts | 239° |
| 2026-04-23 14:38 | 65.89912 | -58.61229 | 12773 ft | 131 kts | 240° |
| 2026-04-23 14:38 | 65.89541 | -58.63261 | 12774 ft | 131 kts | 239° |
| 2026-04-23 14:38 | 65.89166 | -58.65304 | 12774 ft | 131 kts | 240° |
| 2026-04-23 14:38 | 65.88790 | -58.67344 | 12775 ft | 131 kts | 240° |
| 2026-04-23 14:39 | 65.88418 | -58.69355 | 12778 ft | 131 kts | 239° |
| 2026-04-23 14:39 | 65.88040 | -58.71404 | 12776 ft | 131 kts | 240° |
| 2026-04-23 14:39 | 65.87667 | -58.73420 | 12778 ft | 131 kts | 240° |
| 2026-04-23 14:39 | 65.87289 | -58.75466 | 12777 ft | 131 kts | 239° |
| 2026-04-23 14:40 | 65.86914 | -58.77486 | 12779 ft | 131 kts | 240° |
| 2026-04-23 14:40 | 65.86535 | -58.79533 | 12778 ft | 131 kts | 240° |
| 2026-04-23 14:40 | 65.86161 | -58.81545 | 12779 ft | 131 kts | 239° |
| 2026-04-23 14:40 | 65.85781 | -58.83589 | 12776 ft | 132 kts | 240° |
| 2026-04-23 14:41 | 65.85405 | -58.85607 | 12778 ft | 131 kts | 239° |
| 2026-04-23 14:41 | 65.85026 | -58.87645 | 12780 ft | 132 kts | 240° |
| 2026-04-23 14:41 | 65.84644 | -58.89694 | 12780 ft | 132 kts | 240° |
| 2026-04-23 14:41 | 65.84266 | -58.91717 | 12781 ft | 132 kts | 239° |
| 2026-04-23 14:42 | 65.83884 | -58.93765 | 12782 ft | 132 kts | 239° |
| 2026-04-23 14:42 | 65.83507 | -58.95782 | 12782 ft | 132 kts | 240° |
| 2026-04-23 14:42 | 65.83128 | -58.97807 | 12783 ft | 132 kts | 240° |
| 2026-04-23 14:42 | 65.82744 | -58.99852 | 12781 ft | 132 kts | 239° |
| 2026-04-23 14:43 | 65.82362 | -59.01892 | 12783 ft | 132 kts | 239° |
| 2026-04-23 14:43 | 65.81984 | -59.03905 | 12782 ft | 132 kts | 239° |
| 2026-04-23 14:43 | 65.81600 | -59.05947 | 12780 ft | 132 kts | 239° |
| 2026-04-23 14:43 | 65.81221 | -59.07960 | 12781 ft | 131 kts | 239° |
| 2026-04-23 14:44 | 65.80838 | -59.09994 | 12783 ft | 132 kts | 239° |
| 2026-04-23 14:44 | 65.80458 | -59.12012 | 12784 ft | 132 kts | 239° |
| 2026-04-23 14:44 | 65.80074 | -59.14045 | 12784 ft | 132 kts | 239° |
| 2026-04-23 14:44 | 65.79688 | -59.16087 | 12785 ft | 132 kts | 240° |
| 2026-04-23 14:45 | 65.79307 | -59.18102 | 12782 ft | 132 kts | 239° |
| 2026-04-23 14:45 | 65.78921 | -59.20145 | 12782 ft | 132 kts | 238° |
| 2026-04-23 14:45 | 65.78538 | -59.22165 | 12782 ft | 132 kts | 239° |
| 2026-04-23 14:45 | 65.78156 | -59.24178 | 12781 ft | 132 kts | 239° |
| 2026-04-23 14:46 | 65.77769 | -59.26216 | 12783 ft | 132 kts | 239° |
| 2026-04-23 14:46 | 65.77381 | -59.28260 | 12785 ft | 132 kts | 239° |
| 2026-04-23 14:46 | 65.76999 | -59.30272 | 12785 ft | 132 kts | 239° |
| 2026-04-23 14:46 | 65.76610 | -59.32313 | 12787 ft | 132 kts | 239° |
| 2026-04-23 14:47 | 65.76227 | -59.34323 | 12790 ft | 132 kts | 239° |
| 2026-04-23 14:47 | 65.75844 | -59.36334 | 12788 ft | 132 kts | 239° |
| 2026-04-23 14:47 | 65.75457 | -59.38359 | 12790 ft | 132 kts | 239° |
| 2026-04-23 14:47 | 65.75069 | -59.40384 | 12788 ft | 132 kts | 239° |
| 2026-04-23 14:48 | 65.74686 | -59.42388 | 12791 ft | 132 kts | 238° |
| 2026-04-23 14:48 | 65.74298 | -59.44418 | 12789 ft | 132 kts | 238° |
| 2026-04-23 14:48 | 65.73912 | -59.46429 | 12790 ft | 132 kts | 239° |
| 2026-04-23 14:48 | 65.73524 | -59.48454 | 12791 ft | 132 kts | 239° |
| 2026-04-23 14:49 | 65.73135 | -59.50477 | 12790 ft | 132 kts | 238° |
| 2026-04-23 14:49 | 65.72744 | -59.52510 | 12792 ft | 132 kts | 239° |
| 2026-04-23 14:49 | 65.72358 | -59.54510 | 12795 ft | 132 kts | 238° |
| 2026-04-23 14:49 | 65.71967 | -59.56545 | 12789 ft | 132 kts | 239° |
| 2026-04-23 14:50 | 65.71576 | -59.58571 | 12793 ft | 132 kts | 240° |
| 2026-04-23 14:50 | 65.71189 | -59.60577 | 12793 ft | 132 kts | 238° |
| 2026-04-23 14:50 | 65.70796 | -59.62608 | 12792 ft | 132 kts | 238° |
| 2026-04-23 14:50 | 65.70409 | -59.64608 | 12792 ft | 132 kts | 238° |
| 2026-04-23 14:51 | 65.70017 | -59.66637 | 12791 ft | 132 kts | 238° |
| 2026-04-23 14:51 | 65.69628 | -59.68641 | 12792 ft | 132 kts | 239° |
| 2026-04-23 14:51 | 65.69234 | -59.70670 | 12790 ft | 132 kts | 239° |
| 2026-04-23 14:51 | 65.68844 | -59.72680 | 12795 ft | 132 kts | 238° |
| 2026-04-23 14:52 | 65.68450 | -59.74709 | 12792 ft | 132 kts | 238° |
| 2026-04-23 14:52 | 65.68057 | -59.76731 | 12791 ft | 132 kts | 238° |
| 2026-04-23 14:52 | 65.67666 | -59.78738 | 12793 ft | 133 kts | 238° |
| 2026-04-23 14:52 | 65.67268 | -59.80776 | 12792 ft | 133 kts | 238° |
| 2026-04-23 14:53 | 65.66877 | -59.82780 | 12795 ft | 133 kts | 239° |
| 2026-04-23 14:53 | 65.66480 | -59.84814 | 12795 ft | 132 kts | 238° |
| 2026-04-23 14:53 | 65.66090 | -59.86809 | 12791 ft | 132 kts | 238° |
| 2026-04-23 14:53 | 65.65693 | -59.88838 | 12796 ft | 132 kts | 238° |
| 2026-04-23 14:54 | 65.65301 | -59.90842 | 12798 ft | 132 kts | 238° |
| 2026-04-23 14:54 | 65.65036 | -59.92191 | 12797 ft | 133 kts | 238° |
| 2026-04-23 14:54 | 65.64509 | -59.94874 | 12797 ft | 133 kts | 239° |
| 2026-04-23 14:54 | 65.64245 | -59.96217 | 12798 ft | 132 kts | 238° |
| 2026-04-23 14:55 | 65.63847 | -59.98244 | 12796 ft | 133 kts | 238° |
| 2026-04-23 14:55 | 65.63448 | -60.00265 | 12799 ft | 133 kts | 238° |
| 2026-04-23 14:55 | 65.63051 | -60.02285 | 12799 ft | 133 kts | 238° |
| 2026-04-23 14:55 | 65.62656 | -60.04290 | 12797 ft | 133 kts | 238° |
| 2026-04-23 14:56 | 65.62260 | -60.06294 | 12798 ft | 133 kts | 238° |
| 2026-04-23 14:56 | 65.61860 | -60.08320 | 12796 ft | 133 kts | 238° |
| 2026-04-23 14:56 | 65.61464 | -60.10321 | 12798 ft | 133 kts | 238° |
| 2026-04-23 14:56 | 65.61062 | -60.12351 | 12799 ft | 133 kts | 238° |
| 2026-04-23 14:57 | 65.60666 | -60.14350 | 12798 ft | 133 kts | 237° |
| 2026-04-23 14:57 | 65.60266 | -60.16368 | 12798 ft | 133 kts | 238° |
| 2026-04-23 14:57 | 65.59864 | -60.18394 | 12796 ft | 133 kts | 237° |
| 2026-04-23 14:57 | 65.59463 | -60.20410 | 12795 ft | 133 kts | 238° |
| 2026-04-23 14:58 | 65.59064 | -60.22415 | 12795 ft | 133 kts | 239° |
| 2026-04-23 14:58 | 65.58660 | -60.24445 | 12799 ft | 133 kts | 237° |
| 2026-04-23 14:58 | 65.58258 | -60.26461 | 12800 ft | 133 kts | 237° |
| 2026-04-23 14:58 | 65.57858 | -60.28462 | 12800 ft | 133 kts | 239° |
| 2026-04-23 14:59 | 65.57456 | -60.30480 | 12798 ft | 133 kts | 238° |
| 2026-04-23 14:59 | 65.57058 | -60.32471 | 12800 ft | 133 kts | 238° |
| 2026-04-23 14:59 | 65.56652 | -60.34496 | 12799 ft | 134 kts | 238° |
| 2026-04-23 14:59 | 65.56245 | -60.36528 | 12800 ft | 134 kts | 237° |
| 2026-04-23 15:00 | 65.55844 | -60.38532 | 12803 ft | 134 kts | 238° |
| 2026-04-23 15:00 | 65.55436 | -60.40566 | 12802 ft | 134 kts | 237° |
| 2026-04-23 15:00 | 65.55034 | -60.42563 | 12803 ft | 134 kts | 237° |
| 2026-04-23 15:00 | 65.54625 | -60.44596 | 12803 ft | 133 kts | 238° |
| 2026-04-23 15:01 | 65.54222 | -60.46600 | 12802 ft | 134 kts | 237° |
| 2026-04-23 15:01 | 65.53813 | -60.48634 | 12801 ft | 134 kts | 238° |
| 2026-04-23 15:01 | 65.53407 | -60.50650 | 12802 ft | 134 kts | 237° |
| 2026-04-23 15:01 | 65.53000 | -60.52660 | 12804 ft | 134 kts | 237° |
| 2026-04-23 15:02 | 65.52592 | -60.54681 | 12803 ft | 134 kts | 238° |
| 2026-04-23 15:02 | 65.52179 | -60.56724 | 12804 ft | 135 kts | 238° |
| 2026-04-23 15:02 | 65.51772 | -60.58736 | 12802 ft | 134 kts | 238° |
| 2026-04-23 15:02 | 65.51357 | -60.60778 | 12803 ft | 135 kts | 237° |
| 2026-04-23 15:03 | 65.50950 | -60.62787 | 12801 ft | 134 kts | 238° |
| 2026-04-23 15:03 | 65.50538 | -60.64820 | 12805 ft | 134 kts | 237° |
| 2026-04-23 15:03 | 65.50129 | -60.66831 | 12805 ft | 134 kts | 237° |
| 2026-04-23 15:03 | 65.49722 | -60.68835 | 12804 ft | 134 kts | 237° |
| 2026-04-23 15:04 | 65.49309 | -60.70857 | 12805 ft | 134 kts | 238° |
| 2026-04-23 15:04 | 65.48896 | -60.72886 | 12801 ft | 134 kts | 237° |
| 2026-04-23 15:04 | 65.48487 | -60.74895 | 12799 ft | 134 kts | 237° |
| 2026-04-23 15:04 | 65.48072 | -60.76923 | 12801 ft | 135 kts | 237° |
| 2026-04-23 15:05 | 65.47657 | -60.78955 | 12800 ft | 135 kts | 238° |
| 2026-04-23 15:05 | 65.47246 | -60.80960 | 12808 ft | 135 kts | 237° |
| 2026-04-23 15:05 | 65.46832 | -60.82988 | 12800 ft | 135 kts | 236° |
| 2026-04-23 15:05 | 65.46420 | -60.84993 | 12802 ft | 135 kts | 238° |
| 2026-04-23 15:06 | 65.46002 | -60.87028 | 12803 ft | 135 kts | 237° |
| 2026-04-23 15:06 | 65.45590 | -60.89035 | 12803 ft | 135 kts | 237° |
| 2026-04-23 15:06 | 65.45172 | -60.91064 | 12804 ft | 135 kts | 238° |
| 2026-04-23 15:06 | 65.44760 | -60.93075 | 12802 ft | 135 kts | 237° |
| 2026-04-23 15:07 | 65.44345 | -60.95088 | 12802 ft | 135 kts | 237° |
| 2026-04-23 15:07 | 65.43925 | -60.97123 | 12808 ft | 135 kts | 237° |
| 2026-04-23 15:07 | 65.43503 | -60.99167 | 12808 ft | 135 kts | 238° |
| 2026-04-23 15:07 | 65.43089 | -61.01170 | 12806 ft | 135 kts | 237° |
| 2026-04-23 15:08 | 65.42667 | -61.03209 | 12807 ft | 135 kts | 237° |
| 2026-04-23 15:08 | 65.42249 | -61.05231 | 12806 ft | 136 kts | 236° |
| 2026-04-23 15:08 | 65.41831 | -61.07244 | 12805 ft | 136 kts | 237° |
| 2026-04-23 15:09 | 65.40988 | -61.11314 | 12809 ft | 136 kts | 237° |
| 2026-04-23 15:09 | 65.40565 | -61.13351 | 12809 ft | 137 kts | 237° |
| 2026-04-23 15:09 | 65.40141 | -61.15387 | 12807 ft | 136 kts | 237° |
| 2026-04-23 15:09 | 65.39716 | -61.17429 | 12808 ft | 137 kts | 237° |
| 2026-04-23 15:10 | 65.39428 | -61.18805 | 12808 ft | 137 kts | 238° |
| 2026-04-23 15:10 | 65.38863 | -61.21516 | 12807 ft | 137 kts | 237° |
| 2026-04-23 15:10 | 65.38438 | -61.23555 | 12808 ft | 137 kts | 237° |
| 2026-04-23 15:10 | 65.38010 | -61.25599 | 12812 ft | 137 kts | 237° |
| 2026-04-23 15:11 | 65.37581 | -61.27646 | 12810 ft | 137 kts | 237° |
| 2026-04-23 15:11 | 65.37152 | -61.29695 | 12810 ft | 137 kts | 237° |
| 2026-04-23 15:11 | 65.36729 | -61.31717 | 12812 ft | 138 kts | 237° |
| 2026-04-23 15:11 | 65.36299 | -61.33765 | 12812 ft | 138 kts | 238° |
| 2026-04-23 15:12 | 65.35869 | -61.35815 | 12811 ft | 138 kts | 237° |
| 2026-04-23 15:12 | 65.35437 | -61.37866 | 12810 ft | 138 kts | 237° |
| 2026-04-23 15:12 | 65.35005 | -61.39919 | 12811 ft | 138 kts | 238° |
| 2026-04-23 15:12 | 65.34573 | -61.41975 | 12811 ft | 138 kts | 237° |
| 2026-04-23 15:13 | 65.34139 | -61.44030 | 12811 ft | 138 kts | 238° |
| 2026-04-23 15:13 | 65.33706 | -61.46082 | 12813 ft | 138 kts | 238° |
| 2026-04-23 15:13 | 65.33269 | -61.48148 | 12809 ft | 138 kts | 238° |
| 2026-04-23 15:13 | 65.32840 | -61.50179 | 12812 ft | 139 kts | 237° |
| 2026-04-23 15:14 | 65.32399 | -61.52262 | 12811 ft | 139 kts | 238° |
| 2026-04-23 15:14 | 65.31969 | -61.54294 | 12811 ft | 139 kts | 237° |
| 2026-04-23 15:14 | 65.31531 | -61.56356 | 12812 ft | 139 kts | 237° |
| 2026-04-23 15:14 | 65.31094 | -61.58415 | 12811 ft | 139 kts | 237° |
| 2026-04-23 15:15 | 65.30658 | -61.60468 | 12809 ft | 139 kts | 238° |
| 2026-04-23 15:15 | 65.30219 | -61.62531 | 12810 ft | 139 kts | 238° |
| 2026-04-23 15:15 | 65.29779 | -61.64594 | 12811 ft | 139 kts | 237° |
| 2026-04-23 15:15 | 65.29340 | -61.66658 | 12815 ft | 139 kts | 238° |
| 2026-04-23 15:16 | 65.28899 | -61.68723 | 12816 ft | 139 kts | 237° |
| 2026-04-23 15:16 | 65.28457 | -61.70792 | 12813 ft | 140 kts | 237° |
| 2026-04-23 15:16 | 65.28016 | -61.72855 | 12813 ft | 140 kts | 238° |
| 2026-04-23 15:16 | 65.27573 | -61.74928 | 12813 ft | 140 kts | 238° |
| 2026-04-23 15:17 | 65.27129 | -61.76998 | 12815 ft | 140 kts | 238° |
| 2026-04-23 15:17 | 65.26686 | -61.79067 | 12814 ft | 140 kts | 238° |
| 2026-04-23 15:17 | 65.26242 | -61.81137 | 12814 ft | 140 kts | 238° |
| 2026-04-23 15:17 | 65.25797 | -61.83209 | 12814 ft | 140 kts | 237° |
| 2026-04-23 15:18 | 65.25351 | -61.85283 | 12813 ft | 140 kts | 238° |
| 2026-04-23 15:18 | 65.24910 | -61.87331 | 12811 ft | 140 kts | 237° |
| 2026-04-23 15:18 | 65.24464 | -61.89405 | 12809 ft | 141 kts | 238° |
| 2026-04-23 15:18 | 65.24015 | -61.91487 | 12813 ft | 141 kts | 237° |
| 2026-04-23 15:19 | 65.23567 | -61.93561 | 12814 ft | 141 kts | 237° |
| 2026-04-23 15:19 | 65.23119 | -61.95636 | 12815 ft | 141 kts | 238° |
| 2026-04-23 15:19 | 65.22669 | -61.97716 | 12809 ft | 141 kts | 238° |
| 2026-04-23 15:19 | 65.22220 | -61.99788 | 12809 ft | 141 kts | 238° |
| 2026-04-23 15:20 | 65.21923 | -62.01160 | 12822 ft | 141 kts | 238° |
| 2026-04-23 15:20 | 65.21321 | -62.03939 | 12821 ft | 141 kts | 238° |
| 2026-04-23 15:20 | 65.20869 | -62.06018 | 12817 ft | 141 kts | 238° |
| 2026-04-23 15:20 | 65.20418 | -62.08095 | 12816 ft | 141 kts | 238° |
| 2026-04-23 15:21 | 65.19966 | -62.10172 | 12822 ft | 141 kts | 238° |
| 2026-04-23 15:21 | 65.19513 | -62.12252 | 12817 ft | 141 kts | 238° |
| 2026-04-23 15:21 | 65.19060 | -62.14329 | 12823 ft | 141 kts | 238° |
| 2026-04-23 15:21 | 65.18606 | -62.16408 | 12819 ft | 141 kts | 238° |
| 2026-04-23 15:22 | 65.18152 | -62.18490 | 12822 ft | 142 kts | 238° |
| 2026-04-23 15:22 | 65.17698 | -62.20568 | 12818 ft | 142 kts | 238° |
| 2026-04-23 15:22 | 65.17245 | -62.22635 | 12824 ft | 142 kts | 238° |
| 2026-04-23 15:22 | 65.16788 | -62.24725 | 12819 ft | 142 kts | 238° |
| 2026-04-23 15:23 | 65.16328 | -62.26822 | 12823 ft | 142 kts | 238° |
| 2026-04-23 15:23 | 65.15873 | -62.28893 | 12813 ft | 142 kts | 238° |
| 2026-04-23 15:23 | 65.15413 | -62.30987 | 12819 ft | 142 kts | 238° |
| 2026-04-23 15:23 | 65.14959 | -62.33054 | 12823 ft | 142 kts | 238° |
| 2026-04-23 15:24 | 65.14499 | -62.35144 | 12817 ft | 142 kts | 238° |
| 2026-04-23 15:24 | 65.14043 | -62.37215 | 12815 ft | 142 kts | 238° |
| 2026-04-23 15:24 | 65.13582 | -62.39302 | 12819 ft | 142 kts | 238° |
| 2026-04-23 15:24 | 65.13121 | -62.41394 | 12819 ft | 142 kts | 238° |
| 2026-04-23 15:25 | 65.12663 | -62.43464 | 12818 ft | 142 kts | 238° |
| 2026-04-23 15:25 | 65.12205 | -62.45535 | 12823 ft | 142 kts | 238° |
| 2026-04-23 15:25 | 65.11742 | -62.47626 | 12810 ft | 142 kts | 238° |
| 2026-04-23 15:25 | 65.11279 | -62.49717 | 12816 ft | 143 kts | 237° |
| 2026-04-23 15:26 | 65.10820 | -62.51788 | 12816 ft | 143 kts | 237° |
| 2026-04-23 15:26 | 65.10355 | -62.53880 | 12818 ft | 143 kts | 238° |
| 2026-04-23 15:26 | 65.09895 | -62.55950 | 12819 ft | 143 kts | 237° |
| 2026-04-23 15:26 | 65.09431 | -62.58034 | 12819 ft | 143 kts | 237° |
| 2026-04-23 15:27 | 65.08966 | -62.60124 | 12821 ft | 143 kts | 237° |
| 2026-04-23 15:27 | 65.08503 | -62.62203 | 12814 ft | 143 kts | 237° |
| 2026-04-23 15:27 | 65.08038 | -62.64285 | 12815 ft | 143 kts | 237° |
| 2026-04-23 15:27 | 65.07574 | -62.66363 | 12824 ft | 143 kts | 237° |
| 2026-04-23 15:28 | 65.07110 | -62.68438 | 12821 ft | 143 kts | 237° |
| 2026-04-23 15:28 | 65.06641 | -62.70535 | 12819 ft | 143 kts | 237° |
| 2026-04-23 15:28 | 65.06177 | -62.72604 | 12814 ft | 143 kts | 237° |
| 2026-04-23 15:28 | 65.05709 | -62.74691 | 12815 ft | 143 kts | 237° |
| 2026-04-23 15:29 | 65.05243 | -62.76771 | 12814 ft | 143 kts | 237° |
| 2026-04-23 15:29 | 65.04778 | -62.78839 | 12821 ft | 143 kts | 237° |
| 2026-04-23 15:29 | 65.04312 | -62.80912 | 12815 ft | 143 kts | 237° |
| 2026-04-23 15:29 | 65.03843 | -62.82997 | 12824 ft | 143 kts | 237° |
| 2026-04-23 15:30 | 65.03375 | -62.85075 | 12818 ft | 143 kts | 237° |
| 2026-04-23 15:30 | 65.02906 | -62.87154 | 12822 ft | 143 kts | 237° |
| 2026-04-23 15:30 | 65.02438 | -62.89227 | 12812 ft | 143 kts | 237° |
| 2026-04-23 15:30 | 65.01968 | -62.91308 | 12826 ft | 143 kts | 237° |
| 2026-04-23 15:31 | 65.01493 | -62.93406 | 12823 ft | 143 kts | 237° |
| 2026-04-23 15:31 | 65.01024 | -62.95480 | 12822 ft | 143 kts | 237° |
| 2026-04-23 15:31 | 65.00554 | -62.97551 | 12820 ft | 143 kts | 237° |
| 2026-04-23 15:31 | 65.00085 | -62.99619 | 12822 ft | 143 kts | 237° |
| 2026-04-23 15:32 | 64.99571 | -63.01626 | 12818 ft | 142 kts | 233° |
| 2026-04-23 15:32 | 64.99061 | -63.03608 | 12823 ft | 142 kts | 234° |
| 2026-04-23 15:32 | 64.98545 | -63.05610 | 12821 ft | 143 kts | 234° |
| 2026-04-23 15:32 | 64.98028 | -63.07603 | 12825 ft | 143 kts | 234° |
| 2026-04-23 15:33 | 64.97510 | -63.09601 | 12824 ft | 143 kts | 234° |
| 2026-04-23 15:33 | 64.96991 | -63.11598 | 12822 ft | 143 kts | 234° |
| 2026-04-23 15:33 | 64.96469 | -63.13603 | 12826 ft | 143 kts | 233° |
| 2026-04-23 15:33 | 64.95950 | -63.15594 | 12824 ft | 143 kts | 233° |
| 2026-04-23 15:34 | 64.95425 | -63.17611 | 12820 ft | 143 kts | 233° |
| 2026-04-23 15:34 | 64.94906 | -63.19600 | 12819 ft | 143 kts | 233° |
| 2026-04-23 15:34 | 64.94387 | -63.21589 | 12823 ft | 143 kts | 233° |
| 2026-04-23 15:34 | 64.93860 | -63.23603 | 12818 ft | 143 kts | 233° |
| 2026-04-23 15:35 | 64.93340 | -63.25592 | 12823 ft | 143 kts | 233° |
| 2026-04-23 15:35 | 64.92819 | -63.27582 | 12824 ft | 143 kts | 233° |
| 2026-04-23 15:35 | 64.92296 | -63.29576 | 12830 ft | 143 kts | 233° |
| 2026-04-23 15:35 | 64.91768 | -63.31598 | 12817 ft | 146 kts | 233° |
| 2026-04-23 15:36 | 64.91230 | -63.33641 | 12820 ft | 144 kts | 233° |
| 2026-04-23 15:36 | 64.90703 | -63.35645 | 12816 ft | 144 kts | 233° |
| 2026-04-23 15:36 | 64.90180 | -63.37634 | 12820 ft | 144 kts | 233° |
| 2026-04-23 15:36 | 64.89656 | -63.39626 | 12814 ft | 144 kts | 233° |
| 2026-04-23 15:37 | 64.89124 | -63.41644 | 12820 ft | 144 kts | 233° |
| 2026-04-23 15:37 | 64.88600 | -63.43632 | 12816 ft | 144 kts | 233° |
| 2026-04-23 15:37 | 64.88248 | -63.44964 | 12824 ft | 144 kts | 233° |
| 2026-04-23 15:37 | 64.87549 | -63.47612 | 12820 ft | 144 kts | 233° |
| 2026-04-23 15:38 | 64.87022 | -63.49604 | 12820 ft | 144 kts | 233° |
| 2026-04-23 15:38 | 64.86488 | -63.51623 | 12818 ft | 144 kts | 233° |
| 2026-04-23 15:38 | 64.85962 | -63.53608 | 12822 ft | 144 kts | 233° |
| 2026-04-23 15:38 | 64.85434 | -63.55599 | 12821 ft | 144 kts | 233° |
| 2026-04-23 15:39 | 64.84905 | -63.57592 | 12818 ft | 144 kts | 233° |
| 2026-04-23 15:39 | 64.84374 | -63.59591 | 12825 ft | 144 kts | 233° |
| 2026-04-23 15:39 | 64.84027 | -63.60898 | 12820 ft | 144 kts | 233° |
| 2026-04-23 15:39 | 64.83492 | -63.62908 | 12823 ft | 144 kts | 233° |
| 2026-04-23 15:40 | 64.82963 | -63.64894 | 12828 ft | 144 kts | 233° |
| 2026-04-23 15:40 | 64.82431 | -63.66891 | 12827 ft | 144 kts | 233° |
| 2026-04-23 15:40 | 64.81906 | -63.68862 | 12824 ft | 144 kts | 233° |
| 2026-04-23 15:40 | 64.81368 | -63.70874 | 12827 ft | 144 kts | 233° |
| 2026-04-23 15:41 | 64.80842 | -63.72845 | 12825 ft | 144 kts | 233° |
| 2026-04-23 15:41 | 64.80311 | -63.74830 | 12826 ft | 144 kts | 233° |
| 2026-04-23 15:41 | 64.79772 | -63.76845 | 12829 ft | 144 kts | 233° |
| 2026-04-23 15:41 | 64.79241 | -63.78825 | 12828 ft | 144 kts | 233° |
| 2026-04-23 15:42 | 64.78710 | -63.80807 | 12827 ft | 144 kts | 233° |
| 2026-04-23 15:42 | 64.78174 | -63.82803 | 12833 ft | 144 kts | 233° |
| 2026-04-23 15:42 | 64.77642 | -63.84783 | 12829 ft | 144 kts | 233° |
| 2026-04-23 15:42 | 64.77112 | -63.86753 | 12831 ft | 144 kts | 233° |
| 2026-04-23 15:43 | 64.76573 | -63.88758 | 12835 ft | 144 kts | 233° |
| 2026-04-23 15:43 | 64.76040 | -63.90737 | 12835 ft | 144 kts | 233° |
| 2026-04-23 15:43 | 64.75508 | -63.92708 | 12836 ft | 144 kts | 233° |
| 2026-04-23 15:43 | 64.74973 | -63.94691 | 12837 ft | 144 kts | 233° |
| 2026-04-23 15:44 | 64.74443 | -63.96655 | 12835 ft | 144 kts | 233° |
| 2026-04-23 15:44 | 64.73905 | -63.98645 | 12829 ft | 144 kts | 233° |
| 2026-04-23 15:44 | 64.73366 | -64.00636 | 12834 ft | 144 kts | 233° |
| 2026-04-23 15:44 | 64.72831 | -64.02610 | 12836 ft | 144 kts | 233° |
| 2026-04-23 15:45 | 64.72297 | -64.04582 | 12840 ft | 144 kts | 233° |
| 2026-04-23 15:45 | 64.71756 | -64.06577 | 12836 ft | 144 kts | 233° |
| 2026-04-23 15:45 | 64.71219 | -64.08553 | 12839 ft | 144 kts | 233° |
| 2026-04-23 15:45 | 64.70684 | -64.10523 | 12839 ft | 144 kts | 233° |
| 2026-04-23 15:46 | 64.70141 | -64.12520 | 12839 ft | 144 kts | 233° |
| 2026-04-23 15:46 | 64.69604 | -64.14493 | 12838 ft | 144 kts | 233° |
| 2026-04-23 15:46 | 64.69065 | -64.16469 | 12837 ft | 144 kts | 232° |
| 2026-04-23 15:46 | 64.68527 | -64.18442 | 12838 ft | 144 kts | 233° |
| 2026-04-23 15:47 | 64.67989 | -64.20413 | 12842 ft | 144 kts | 233° |
| 2026-04-23 15:47 | 64.67448 | -64.22392 | 12843 ft | 144 kts | 232° |
| 2026-04-23 15:47 | 64.66907 | -64.24369 | 12836 ft | 144 kts | 232° |
| 2026-04-23 15:47 | 64.66366 | -64.26347 | 12839 ft | 144 kts | 232° |
| 2026-04-23 15:48 | 64.65826 | -64.28319 | 12842 ft | 144 kts | 232° |
| 2026-04-23 15:48 | 64.65285 | -64.30294 | 12844 ft | 144 kts | 232° |
| 2026-04-23 15:48 | 64.64741 | -64.32274 | 12842 ft | 144 kts | 232° |
| 2026-04-23 15:48 | 64.64199 | -64.34247 | 12842 ft | 144 kts | 232° |
| 2026-04-23 15:49 | 64.63659 | -64.36213 | 12846 ft | 144 kts | 232° |
| 2026-04-23 15:49 | 64.63117 | -64.38183 | 12841 ft | 144 kts | 232° |
| 2026-04-23 15:49 | 64.62575 | -64.40150 | 12839 ft | 144 kts | 232° |
| 2026-04-23 15:49 | 64.62028 | -64.42133 | 12845 ft | 144 kts | 232° |
| 2026-04-23 15:50 | 64.61486 | -64.44098 | 12843 ft | 144 kts | 232° |
| 2026-04-23 15:50 | 64.60946 | -64.46056 | 12844 ft | 144 kts | 232° |
| 2026-04-23 15:50 | 64.60404 | -64.48017 | 12846 ft | 144 kts | 232° |
| 2026-04-23 15:50 | 64.59856 | -64.49997 | 12847 ft | 144 kts | 232° |
| 2026-04-23 15:51 | 64.59315 | -64.51951 | 12847 ft | 144 kts | 232° |
| 2026-04-23 15:51 | 64.58766 | -64.53933 | 12845 ft | 145 kts | 232° |
| 2026-04-23 15:51 | 64.58225 | -64.55883 | 12845 ft | 144 kts | 232° |
| 2026-04-23 15:51 | 64.57680 | -64.57846 | 12844 ft | 144 kts | 232° |
| 2026-04-23 15:52 | 64.57133 | -64.59816 | 12849 ft | 144 kts | 232° |
| 2026-04-23 15:52 | 64.56591 | -64.61764 | 12847 ft | 144 kts | 232° |
| 2026-04-23 15:52 | 64.56038 | -64.63749 | 12847 ft | 144 kts | 232° |
| 2026-04-23 15:52 | 64.55494 | -64.65702 | 12847 ft | 144 kts | 232° |
| 2026-04-23 15:53 | 64.54950 | -64.67654 | 12849 ft | 144 kts | 232° |
| 2026-04-23 15:53 | 64.54408 | -64.69598 | 12849 ft | 144 kts | 232° |
| 2026-04-23 15:53 | 64.53856 | -64.71572 | 12850 ft | 144 kts | 232° |
| 2026-04-23 15:53 | 64.53308 | -64.73532 | 12849 ft | 144 kts | 232° |
| 2026-04-23 15:54 | 64.52764 | -64.75477 | 12851 ft | 144 kts | 232° |
| 2026-04-23 15:54 | 64.52216 | -64.77433 | 12851 ft | 144 kts | 232° |
| 2026-04-23 15:54 | 64.51668 | -64.79390 | 12854 ft | 144 kts | 232° |
| 2026-04-23 15:54 | 64.51121 | -64.81338 | 12851 ft | 144 kts | 232° |
| 2026-04-23 15:55 | 64.50572 | -64.83294 | 12852 ft | 144 kts | 232° |
| 2026-04-23 15:55 | 64.50025 | -64.85242 | 12852 ft | 144 kts | 232° |
| 2026-04-23 15:55 | 64.49478 | -64.87187 | 12850 ft | 144 kts | 232° |
| 2026-04-23 15:55 | 64.48929 | -64.89135 | 12851 ft | 144 kts | 232° |
| 2026-04-23 15:56 | 64.48384 | -64.91070 | 12852 ft | 144 kts | 232° |
| 2026-04-23 15:56 | 64.47828 | -64.93043 | 12847 ft | 144 kts | 232° |
| 2026-04-23 15:56 | 64.47276 | -64.94997 | 12851 ft | 144 kts | 232° |
| 2026-04-23 15:56 | 64.46732 | -64.96924 | 12848 ft | 145 kts | 232° |
| 2026-04-23 15:57 | 64.46172 | -64.98904 | 12846 ft | 146 kts | 232° |
| 2026-04-23 15:57 | 64.45615 | -65.00871 | 12846 ft | 146 kts | 232° |
| 2026-04-23 15:57 | 64.45061 | -65.02827 | 12847 ft | 145 kts | 232° |
| 2026-04-23 15:57 | 64.44507 | -65.04782 | 12848 ft | 145 kts | 232° |
| 2026-04-23 15:58 | 64.43955 | -65.06730 | 12850 ft | 145 kts | 232° |
| 2026-04-23 15:58 | 64.43396 | -65.08697 | 12850 ft | 147 kts | 232° |
| 2026-04-23 15:58 | 64.42839 | -65.10656 | 12850 ft | 146 kts | 232° |
| 2026-04-23 15:58 | 64.42282 | -65.12614 | 12850 ft | 145 kts | 232° |
| 2026-04-23 15:59 | 64.41729 | -65.14556 | 12847 ft | 147 kts | 232° |
| 2026-04-23 15:59 | 64.41167 | -65.16529 | 12845 ft | 145 kts | 231° |
| 2026-04-23 15:59 | 64.40614 | -65.18467 | 12848 ft | 146 kts | 232° |
| 2026-04-23 15:59 | 64.40053 | -65.20433 | 12848 ft | 146 kts | 232° |
| 2026-04-23 16:00 | 64.39490 | -65.22406 | 12851 ft | 146 kts | 231° |
| 2026-04-23 16:00 | 64.38931 | -65.24357 | 12850 ft | 146 kts | 231° |
| 2026-04-23 16:00 | 64.38372 | -65.26311 | 12850 ft | 146 kts | 231° |
| 2026-04-23 16:00 | 64.37813 | -65.28261 | 12848 ft | 145 kts | 232° |
| 2026-04-23 16:01 | 64.37261 | -65.30187 | 12853 ft | 145 kts | 231° |
| 2026-04-23 16:01 | 64.36695 | -65.32159 | 12850 ft | 147 kts | 231° |
| 2026-04-23 16:01 | 64.36132 | -65.34119 | 12848 ft | 147 kts | 231° |
| 2026-04-23 16:01 | 64.35565 | -65.36093 | 12846 ft | 147 kts | 231° |
| 2026-04-23 16:02 | 64.35003 | -65.38048 | 12854 ft | 146 kts | 231° |
| 2026-04-23 16:02 | 64.34440 | -65.40010 | 12844 ft | 147 kts | 231° |
| 2026-04-23 16:02 | 64.33871 | -65.41981 | 12847 ft | 147 kts | 231° |
| 2026-04-23 16:02 | 64.33309 | -65.43926 | 12849 ft | 147 kts | 231° |
| 2026-04-23 16:03 | 64.32740 | -65.45886 | 12851 ft | 148 kts | 231° |
| 2026-04-23 16:03 | 64.32164 | -65.47888 | 12848 ft | 149 kts | 231° |
| 2026-04-23 16:03 | 64.31592 | -65.49865 | 12844 ft | 147 kts | 231° |
| 2026-04-23 16:03 | 64.31025 | -65.51825 | 12839 ft | 146 kts | 231° |
| 2026-04-23 16:04 | 64.30463 | -65.53765 | 12841 ft | 145 kts | 231° |
| 2026-04-23 16:04 | 64.29909 | -65.55685 | 12835 ft | 144 kts | 235° |
| 2026-04-23 16:04 | 64.29352 | -65.57605 | 12832 ft | 144 kts | 231° |
| 2026-04-23 16:04 | 64.28797 | -65.59504 | 12831 ft | 143 kts | 231° |
| 2026-04-23 16:05 | 64.28423 | -65.60789 | 12835 ft | 145 kts | 231° |
| 2026-04-23 16:05 | 64.27669 | -65.63379 | 12849 ft | 145 kts | 231° |
| 2026-04-23 16:05 | 64.27107 | -65.65308 | 12843 ft | 146 kts | 231° |
| 2026-04-23 16:05 | 64.26542 | -65.67246 | 12847 ft | 146 kts | 231° |
| 2026-04-23 16:06 | 64.25975 | -65.69188 | 12843 ft | 148 kts | 231° |
| 2026-04-23 16:06 | 64.25401 | -65.71159 | 12842 ft | 148 kts | 231° |
| 2026-04-23 16:06 | 64.24834 | -65.73102 | 12841 ft | 146 kts | 231° |
| 2026-04-23 16:06 | 64.24264 | -65.75051 | 12836 ft | 146 kts | 231° |
| 2026-04-23 16:07 | 64.23697 | -65.76983 | 12835 ft | 146 kts | 231° |
| 2026-04-23 16:07 | 64.23132 | -65.78912 | 12841 ft | 145 kts | 231° |
| 2026-04-23 16:07 | 64.22569 | -65.80835 | 12836 ft | 145 kts | 231° |
| 2026-04-23 16:07 | 64.22007 | -65.82750 | 12837 ft | 145 kts | 231° |
| 2026-04-23 16:08 | 64.21446 | -65.84659 | 12837 ft | 145 kts | 231° |
| 2026-04-23 16:08 | 64.20882 | -65.86578 | 12833 ft | 146 kts | 231° |
| 2026-04-23 16:08 | 64.20314 | -65.88506 | 12834 ft | 146 kts | 231° |
| 2026-04-23 16:08 | 64.19741 | -65.90447 | 12837 ft | 146 kts | 231° |
| 2026-04-23 16:09 | 64.19177 | -65.92365 | 12833 ft | 145 kts | 231° |
| 2026-04-23 16:09 | 64.18608 | -65.94293 | 12829 ft | 145 kts | 231° |
| 2026-04-23 16:09 | 64.18044 | -65.96206 | 12838 ft | 145 kts | 231° |
| 2026-04-23 16:09 | 64.17480 | -65.98112 | 12836 ft | 146 kts | 231° |
| 2026-04-23 16:10 | 64.16908 | -66.00045 | 12831 ft | 147 kts | 231° |
| 2026-04-23 16:10 | 64.16332 | -66.01992 | 12826 ft | 146 kts | 231° |
| 2026-04-23 16:10 | 64.15765 | -66.03909 | 12827 ft | 146 kts | 231° |
| 2026-04-23 16:10 | 64.15186 | -66.05857 | 12824 ft | 147 kts | 231° |
| 2026-04-23 16:11 | 64.14620 | -66.07766 | 12826 ft | 146 kts | 231° |
| 2026-04-23 16:11 | 64.14049 | -66.09688 | 12830 ft | 146 kts | 231° |
| 2026-04-23 16:11 | 64.13478 | -66.11613 | 12828 ft | 147 kts | 231° |
| 2026-04-23 16:11 | 64.12899 | -66.13554 | 12828 ft | 147 kts | 231° |
| 2026-04-23 16:12 | 64.12324 | -66.15481 | 12826 ft | 146 kts | 231° |
| 2026-04-23 16:12 | 64.11758 | -66.17383 | 12827 ft | 146 kts | 231° |
| 2026-04-23 16:12 | 64.11184 | -66.19307 | 12825 ft | 146 kts | 231° |
| 2026-04-23 16:12 | 64.10606 | -66.21244 | 12827 ft | 147 kts | 231° |
| 2026-04-23 16:13 | 64.10027 | -66.23180 | 12827 ft | 146 kts | 231° |
| 2026-04-23 16:13 | 64.08874 | -66.27032 | 12822 ft | 147 kts | 231° |
| 2026-04-23 16:13 | 64.08294 | -66.28970 | 12827 ft | 148 kts | 231° |
| 2026-04-23 16:14 | 64.07713 | -66.30911 | 12823 ft | 147 kts | 231° |
| 2026-04-23 16:14 | 64.07134 | -66.32829 | 12823 ft | 147 kts | 231° |
| 2026-04-23 16:14 | 64.06561 | -66.34739 | 12824 ft | 146 kts | 231° |
| 2026-04-23 16:14 | 64.05985 | -66.36661 | 12830 ft | 146 kts | 231° |
| 2026-04-23 16:15 | 64.05410 | -66.38573 | 12824 ft | 146 kts | 231° |
| 2026-04-23 16:15 | 64.04833 | -66.40483 | 12828 ft | 147 kts | 231° |
| 2026-04-23 16:15 | 64.04252 | -66.42412 | 12830 ft | 148 kts | 231° |
| 2026-04-23 16:15 | 64.03664 | -66.44368 | 12826 ft | 148 kts | 231° |
| 2026-04-23 16:16 | 64.03084 | -66.46287 | 12830 ft | 147 kts | 231° |
| 2026-04-23 16:16 | 64.02505 | -66.48202 | 12825 ft | 147 kts | 231° |
| 2026-04-23 16:16 | 64.01927 | -66.50115 | 12827 ft | 147 kts | 231° |
| 2026-04-23 16:16 | 64.01346 | -66.52032 | 12827 ft | 147 kts | 231° |
| 2026-04-23 16:17 | 64.00761 | -66.53960 | 12828 ft | 147 kts | 231° |
| 2026-04-23 16:17 | 64.00180 | -66.55877 | 12829 ft | 148 kts | 231° |
| 2026-04-23 16:17 | 63.99599 | -66.57796 | 12824 ft | 147 kts | 231° |
| 2026-04-23 16:17 | 63.99021 | -66.59700 | 12823 ft | 147 kts | 231° |
| 2026-04-23 16:18 | 63.98440 | -66.61611 | 12825 ft | 146 kts | 231° |
| 2026-04-23 16:18 | 63.97856 | -66.63523 | 12827 ft | 148 kts | 231° |
| 2026-04-23 16:18 | 63.97273 | -66.65445 | 12822 ft | 148 kts | 231° |
| 2026-04-23 16:18 | 63.96684 | -66.67375 | 12823 ft | 148 kts | 231° |
| 2026-04-23 16:19 | 63.96110 | -66.69271 | 12822 ft | 146 kts | 231° |
| 2026-04-23 16:19 | 63.95527 | -66.71171 | 12825 ft | 147 kts | 231° |
| 2026-04-23 16:19 | 63.95134 | -66.72453 | 12822 ft | 148 kts | 231° |
| 2026-04-23 16:19 | 63.94544 | -66.74385 | 12826 ft | 147 kts | 231° |
| 2026-04-23 16:20 | 63.93767 | -66.76920 | 12823 ft | 148 kts | 231° |
| 2026-04-23 16:20 | 63.93378 | -66.78204 | 12830 ft | 147 kts | 233° |
| 2026-04-23 16:20 | 63.92952 | -66.80338 | 12823 ft | 149 kts | 245° |
| 2026-04-23 16:20 | 63.92568 | -66.82540 | 12822 ft | 149 kts | 244° |
| 2026-04-23 16:21 | 63.92179 | -66.84741 | 12821 ft | 150 kts | 244° |
| 2026-04-23 16:21 | 63.91796 | -66.86919 | 12829 ft | 150 kts | 244° |
| 2026-04-23 16:21 | 63.91406 | -66.89144 | 12821 ft | 149 kts | 244° |
| 2026-04-23 16:21 | 63.91019 | -66.91336 | 12824 ft | 150 kts | 244° |
| 2026-04-23 16:22 | 63.90632 | -66.93532 | 12819 ft | 152 kts | 245° |
| 2026-04-23 16:22 | 63.90237 | -66.95779 | 12826 ft | 151 kts | 244° |
| 2026-04-23 16:22 | 63.89848 | -66.97975 | 12815 ft | 151 kts | 244° |
| 2026-04-23 16:22 | 63.89454 | -67.00205 | 12811 ft | 151 kts | 244° |
| 2026-04-23 16:23 | 63.89064 | -67.02407 | 12809 ft | 151 kts | 244° |
| 2026-04-23 16:23 | 63.88673 | -67.04615 | 12815 ft | 151 kts | 244° |
| 2026-04-23 16:23 | 63.88280 | -67.06827 | 12806 ft | 150 kts | 244° |
| 2026-04-23 16:23 | 63.87891 | -67.09014 | 12805 ft | 150 kts | 244° |
| 2026-04-23 16:24 | 63.87502 | -67.11209 | 12802 ft | 149 kts | 244° |
| 2026-04-23 16:24 | 63.87116 | -67.13376 | 12806 ft | 149 kts | 245° |
| 2026-04-23 16:24 | 63.86722 | -67.15586 | 12807 ft | 150 kts | 244° |
| 2026-04-23 16:24 | 63.86333 | -67.17762 | 12799 ft | 149 kts | 245° |
| 2026-04-23 16:25 | 63.85948 | -67.19925 | 12800 ft | 149 kts | 244° |
| 2026-04-23 16:25 | 63.85554 | -67.22122 | 12808 ft | 149 kts | 244° |
| 2026-04-23 16:25 | 63.85167 | -67.24285 | 12798 ft | 149 kts | 245° |
| 2026-04-23 16:25 | 63.84776 | -67.26469 | 12798 ft | 150 kts | 245° |
| 2026-04-23 16:26 | 63.84384 | -67.28654 | 12792 ft | 150 kts | 244° |
| 2026-04-23 16:26 | 63.84006 | -67.30758 | 12723 ft | 142 kts | 244° |
| 2026-04-23 16:26 | 63.83630 | -67.32855 | 12555 ft | 141 kts | 245° |
| 2026-04-23 16:26 | 63.83262 | -67.34895 | 12393 ft | 141 kts | 244° |
| 2026-04-23 16:27 | 63.82891 | -67.36950 | 12230 ft | 141 kts | 245° |
| 2026-04-23 16:27 | 63.82522 | -67.38991 | 12092 ft | 141 kts | 245° |
| 2026-04-23 16:27 | 63.82153 | -67.41035 | 11921 ft | 138 kts | 245° |
| 2026-04-23 16:27 | 63.81793 | -67.43029 | 11763 ft | 137 kts | 244° |
| 2026-04-23 16:28 | 63.81428 | -67.45038 | 11603 ft | 137 kts | 245° |
| 2026-04-23 16:28 | 63.81068 | -67.47029 | 11461 ft | 139 kts | 245° |
| 2026-04-23 16:28 | 63.80701 | -67.49049 | 11304 ft | 137 kts | 245° |
| 2026-04-23 16:28 | 63.80341 | -67.51039 | 11156 ft | 136 kts | 245° |
| 2026-04-23 16:29 | 63.79982 | -67.53022 | 11003 ft | 137 kts | 245° |
| 2026-04-23 16:29 | 63.79620 | -67.55015 | 10853 ft | 136 kts | 245° |
| 2026-04-23 16:29 | 63.79258 | -67.56987 | 10705 ft | 136 kts | 245° |
| 2026-04-23 16:29 | 63.78894 | -67.58987 | 10551 ft | 136 kts | 246° |
| 2026-04-23 16:30 | 63.78536 | -67.60952 | 10384 ft | 135 kts | 246° |
| 2026-04-23 16:30 | 63.78181 | -67.62904 | 10219 ft | 134 kts | 246° |
| 2026-04-23 16:30 | 63.77824 | -67.64846 | 10062 ft | 135 kts | 246° |
| 2026-04-23 16:30 | 63.77462 | -67.66822 | 9893 ft | 136 kts | 246° |
| 2026-04-23 16:31 | 63.77102 | -67.68784 | 9729 ft | 135 kts | 246° |
| 2026-04-23 16:31 | 63.76743 | -67.70752 | 9568 ft | 134 kts | 246° |
| 2026-04-23 16:31 | 63.76389 | -67.72675 | 9400 ft | 133 kts | 246° |
| 2026-04-23 16:31 | 63.76038 | -67.74582 | 9238 ft | 131 kts | 246° |
| 2026-04-23 16:32 | 63.75687 | -67.76499 | 9065 ft | 130 kts | 246° |
| 2026-04-23 16:32 | 63.75341 | -67.78374 | 8906 ft | 131 kts | 246° |
| 2026-04-23 16:32 | 63.74988 | -67.80295 | 8755 ft | 132 kts | 245° |
| 2026-04-23 16:32 | 63.74644 | -67.82166 | 8588 ft | 128 kts | 246° |
| 2026-04-23 16:33 | 63.74293 | -67.84055 | 8426 ft | 130 kts | 246° |
| 2026-04-23 16:33 | 63.73988 | -67.85708 | 8291 ft | 127 kts | 246° |
| 2026-04-23 16:33 | 63.73639 | -67.87588 | 8153 ft | 132 kts | 247° |
| 2026-04-23 16:33 | 63.73296 | -67.89454 | 7978 ft | 128 kts | 246° |
| 2026-04-23 16:34 | 63.72954 | -67.91299 | 7815 ft | 125 kts | 246° |
| 2026-04-23 16:34 | 63.72620 | -67.93098 | 7661 ft | 123 kts | 246° |
| 2026-04-23 16:34 | 63.72290 | -67.94875 | 7500 ft | 122 kts | 247° |
| 2026-04-23 16:34 | 63.71965 | -67.96624 | 7351 ft | 121 kts | 245° |
| 2026-04-23 16:35 | 63.71626 | -67.98419 | 7190 ft | 126 kts | 247° |
| 2026-04-23 16:35 | 63.71297 | -68.00211 | 7047 ft | 122 kts | 247° |
| 2026-04-23 16:35 | 63.70968 | -68.01957 | 6878 ft | 120 kts | 247° |
| 2026-04-23 16:35 | 63.70648 | -68.03699 | 6704 ft | 122 kts | 247° |
| 2026-04-23 16:36 | 63.70310 | -68.05513 | 6557 ft | 129 kts | 247° |
| 2026-04-23 16:36 | 63.69959 | -68.07391 | 6408 ft | 134 kts | 247° |
| 2026-04-23 16:36 | 63.69595 | -68.09344 | 6266 ft | 134 kts | 248° |
| 2026-04-23 16:36 | 63.69220 | -68.11306 | 6096 ft | 136 kts | 247° |
| 2026-04-23 16:37 | 63.68859 | -68.13260 | 5941 ft | 135 kts | 248° |
| 2026-04-23 16:37 | 63.68346 | -68.15001 | 5789 ft | 137 kts | 226° |
| 2026-04-23 16:37 | 63.67675 | -68.16527 | 5622 ft | 135 kts | 225° |
| 2026-04-23 16:37 | 63.67024 | -68.18026 | 5378 ft | 128 kts | 226° |
| 2026-04-23 16:38 | 63.66428 | -68.19407 | 5086 ft | 119 kts | 226° |
| 2026-04-23 16:38 | 63.65866 | -68.20709 | 4807 ft | 114 kts | 226° |
| 2026-04-23 16:38 | 63.65323 | -68.21968 | 4523 ft | 111 kts | 226° |
| 2026-04-23 16:38 | 63.64784 | -68.23218 | 4246 ft | 109 kts | 226° |
| 2026-04-23 16:39 | 63.64259 | -68.24434 | 3973 ft | 108 kts | 226° |
| 2026-04-23 16:39 | 63.63739 | -68.25637 | 3686 ft | 108 kts | 226° |
| 2026-04-23 16:39 | 63.63360 | -68.27092 | 3309 ft | 110 kts | 263° |
| 2026-04-23 16:39 | 63.63468 | -68.28611 | 3196 ft | 98 kts | 296° |
| 2026-04-23 16:40 | 63.63908 | -68.29769 | 2983 ft | 98 kts | 318° |
| 2026-04-23 16:40 | 63.64408 | -68.30843 | 2793 ft | 102 kts | 316° |
| 2026-04-23 16:40 | 63.64924 | -68.31967 | 2626 ft | 109 kts | 315° |
| 2026-04-23 16:40 | 63.65466 | -68.33151 | 2442 ft | 107 kts | 316° |
| 2026-04-23 16:41 | 63.65995 | -68.34309 | 2240 ft | 106 kts | 316° |
| 2026-04-23 16:41 | 63.66521 | -68.35459 | 2052 ft | 105 kts | 316° |
| 2026-04-23 16:41 | 63.67051 | -68.36625 | 1856 ft | 110 kts | 316° |
| 2026-04-23 16:41 | 63.67604 | -68.37839 | 1642 ft | 115 kts | 316° |
| 2026-04-23 16:42 | 63.68174 | -68.39089 | 1471 ft | 106 kts | 316° |
| 2026-04-23 16:42 | 63.68665 | -68.40170 | 1475 ft | 94 kts | 316° |
| 2026-04-23 16:42 | 63.69104 | -68.41136 | 1464 ft | 81 kts | 316° |
| 2026-04-23 16:42 | 63.69547 | -68.42112 | 1483 ft | 93 kts | 316° |
| 2026-04-23 16:43 | 63.69987 | -68.43080 | 1477 ft | 83 kts | 315° |
| 2026-04-23 16:43 | 63.70370 | -68.43926 | 1479 ft | 74 kts | 316° |
| 2026-04-23 16:43 | 63.70733 | -68.44727 | 1405 ft | 74 kts | 315° |
| 2026-04-23 16:43 | 63.71084 | -68.45502 | 1319 ft | 67 kts | 315° |
| 2026-04-23 16:44 | 63.71414 | -68.46231 | 1186 ft | 65 kts | 316° |
| 2026-04-23 16:44 | 63.71735 | -68.46941 | 1060 ft | 66 kts | 315° |
| 2026-04-23 16:44 | 63.72076 | -68.47691 | 932 ft | 69 kts | 315° |
| 2026-04-23 16:44 | 63.72401 | -68.48409 | 812 ft | 69 kts | 315° |
| 2026-04-23 16:45 | 63.72743 | -68.49165 | 695 ft | 68 kts | 315° |
| 2026-04-23 16:45 | 63.73076 | -68.49902 | 589 ft | 68 kts | 315° |
| 2026-04-23 16:45 | 63.73405 | -68.50628 | 484 ft | 64 kts | 315° |
| 2026-04-23 16:45 | 63.73728 | -68.51354 | 395 ft | 67 kts | 314° |
| 2026-04-23 16:46 | 63.74059 | -68.52093 | 302 ft | 65 kts | 315° |
| 2026-04-23 16:46 | 63.74389 | -68.52807 | 223 ft | 66 kts | 315° |
| 2026-04-23 16:46 | 63.74713 | -68.53529 | 135 ft | 65 kts | 315° |
| 2026-04-23 16:46 | 63.75028 | -68.54231 | 80 ft | 60 kts | 316° |
| 2026-04-23 16:47 | 63.75271 | -68.54760 | 78 ft | 40 kts | 314° |
| 2026-04-23 16:47 | 63.75423 | -68.55088 | 87 ft | 17 kts | 321° |
| 2026-04-23 16:47 | 63.75498 | -68.55019 | 88 ft | 15 kts | 44° |
| 2026-04-23 16:47 | 63.75574 | -68.54840 | 88 ft | 13 kts | 49° |
| 2026-04-23 16:48 | 63.75620 | -68.54799 | 89 ft | 1 kts | 343° |
| 2026-04-23 16:48 | 63.75627 | -68.54814 | 89 ft | 6 kts | 317° |
| 2026-04-23 16:48 | 63.75687 | -68.54944 | 90 ft | 15 kts | 318° |
| 2026-04-23 16:48 | 63.75754 | -68.55010 | 91 ft | 12 kts | 41° |
| 2026-04-23 16:49 | 63.75807 | -68.54924 | 91 ft | 13 kts | 32° |
| 2026-04-23 16:49 | 63.75894 | -68.54864 | 93 ft | 0 kts | 121° |
| 2026-04-23 16:49 | 63.75893 | -68.54862 | 94 ft | 0 kts | 121° |